<?xml version="1.0" encoding="UTF-8" standalone="no" ?>
<gpx xmlns="http://www.topografix.com/GPX/1/1" xmlns:xsi="http://www.w3.org/2001/XMLSchema-instance" xsi:schemaLocation="http://www.topografix.com/GPX/1/1 http://www.topografix.com/GPX/1/1/gpx.xsd" version="1.1" creator="VisuGPX - https://www.visugpx.com">
  <metadata>
    <name>83-V-Andon</name>
    <desc><![CDATA[83-V-Andon : circuit des pivoines
vendredi 1 juin 2012]]></desc>
  </metadata>
  <trk>
    <name><![CDATA[2012-06-01-andon_originelle]]></name>
    <trkseg>
      <trkpt lat="43.77734" lon="6.81716">
        <ele>1156.445068</ele>
        <time>2012-06-01T07:49:56Z</time>
      </trkpt>
      <trkpt lat="43.77727" lon="6.81718">
        <ele>1156.808593</ele>
        <time>2012-06-01T07:50:33Z</time>
      </trkpt>
      <trkpt lat="43.77726" lon="6.81719">
        <ele>1156.766357</ele>
        <time>2012-06-01T07:50:34Z</time>
      </trkpt>
      <trkpt lat="43.7771" lon="6.81718">
        <ele>1157.3</ele>
        <time>2012-06-01T07:50:46Z</time>
      </trkpt>
      <trkpt lat="43.77702" lon="6.81718">
        <ele>1158.1</ele>
        <time>2012-06-01T07:50:54Z</time>
      </trkpt>
      <trkpt lat="43.77693" lon="6.81716">
        <ele>1158.5</ele>
        <time>2012-06-01T07:51:02Z</time>
      </trkpt>
      <trkpt lat="43.77686" lon="6.81711">
        <ele>1159.1</ele>
        <time>2012-06-01T07:51:09Z</time>
      </trkpt>
      <trkpt lat="43.77678" lon="6.81707">
        <ele>1159.2</ele>
        <time>2012-06-01T07:51:16Z</time>
      </trkpt>
      <trkpt lat="43.77671" lon="6.817">
        <ele>1160</ele>
        <time>2012-06-01T07:51:23Z</time>
      </trkpt>
      <trkpt lat="43.77664" lon="6.81692">
        <ele>1160.5</ele>
        <time>2012-06-01T07:51:31Z</time>
      </trkpt>
      <trkpt lat="43.77658" lon="6.81684">
        <ele>1161.2</ele>
        <time>2012-06-01T07:51:39Z</time>
      </trkpt>
      <trkpt lat="43.77657" lon="6.81683">
        <ele>1161.3</ele>
        <time>2012-06-01T07:51:40Z</time>
      </trkpt>
      <trkpt lat="43.77648" lon="6.81665">
        <ele>1161.6</ele>
        <time>2012-06-01T07:51:57Z</time>
      </trkpt>
      <trkpt lat="43.77646" lon="6.81653">
        <ele>1161.8</ele>
        <time>2012-06-01T07:52:06Z</time>
      </trkpt>
      <trkpt lat="43.77649" lon="6.81643">
        <ele>1162.8</ele>
        <time>2012-06-01T07:52:16Z</time>
      </trkpt>
      <trkpt lat="43.77654" lon="6.81634">
        <ele>1163.6</ele>
        <time>2012-06-01T07:52:23Z</time>
      </trkpt>
      <trkpt lat="43.7766" lon="6.81625">
        <ele>1165.1</ele>
        <time>2012-06-01T07:52:32Z</time>
      </trkpt>
      <trkpt lat="43.77665" lon="6.81616">
        <ele>1166.2</ele>
        <time>2012-06-01T07:52:39Z</time>
      </trkpt>
      <trkpt lat="43.7767" lon="6.81607">
        <ele>1166.7</ele>
        <time>2012-06-01T07:52:48Z</time>
      </trkpt>
      <trkpt lat="43.7767" lon="6.81606">
        <ele>1166.6</ele>
        <time>2012-06-01T07:52:49Z</time>
      </trkpt>
      <trkpt lat="43.7768" lon="6.81588">
        <ele>1167.4</ele>
        <time>2012-06-01T07:53:02Z</time>
      </trkpt>
      <trkpt lat="43.77683" lon="6.81577">
        <ele>1167.8</ele>
        <time>2012-06-01T07:53:12Z</time>
      </trkpt>
      <trkpt lat="43.77685" lon="6.81567">
        <ele>1168.5</ele>
        <time>2012-06-01T07:53:19Z</time>
      </trkpt>
      <trkpt lat="43.77684" lon="6.81556">
        <ele>1167.9</ele>
        <time>2012-06-01T07:53:25Z</time>
      </trkpt>
      <trkpt lat="43.7768" lon="6.81546">
        <ele>1168.8</ele>
        <time>2012-06-01T07:53:31Z</time>
      </trkpt>
      <trkpt lat="43.77678" lon="6.81535">
        <ele>1168.8</ele>
        <time>2012-06-01T07:53:37Z</time>
      </trkpt>
      <trkpt lat="43.77677" lon="6.81523">
        <ele>1169.3</ele>
        <time>2012-06-01T07:53:45Z</time>
      </trkpt>
      <trkpt lat="43.77673" lon="6.81514">
        <ele>1170</ele>
        <time>2012-06-01T07:53:50Z</time>
      </trkpt>
      <trkpt lat="43.77671" lon="6.81511">
        <ele>1170.1</ele>
        <time>2012-06-01T07:53:51Z</time>
      </trkpt>
      <trkpt lat="43.77662" lon="6.81497">
        <ele>1169.6</ele>
        <time>2012-06-01T07:54:03Z</time>
      </trkpt>
      <trkpt lat="43.77656" lon="6.8149">
        <ele>1170</ele>
        <time>2012-06-01T07:54:10Z</time>
      </trkpt>
      <trkpt lat="43.77649" lon="6.81483">
        <ele>1170.1</ele>
        <time>2012-06-01T07:54:17Z</time>
      </trkpt>
      <trkpt lat="43.77643" lon="6.81475">
        <ele>1170.1</ele>
        <time>2012-06-01T07:54:24Z</time>
      </trkpt>
      <trkpt lat="43.77636" lon="6.81468">
        <ele>1171.5</ele>
        <time>2012-06-01T07:54:31Z</time>
      </trkpt>
      <trkpt lat="43.7763" lon="6.81462">
        <ele>1172</ele>
        <time>2012-06-01T07:54:38Z</time>
      </trkpt>
      <trkpt lat="43.77623" lon="6.81455">
        <ele>1172.1</ele>
        <time>2012-06-01T07:54:46Z</time>
      </trkpt>
      <trkpt lat="43.77616" lon="6.81449">
        <ele>1173.3</ele>
        <time>2012-06-01T07:54:53Z</time>
      </trkpt>
      <trkpt lat="43.77615" lon="6.81447">
        <ele>1173.4</ele>
        <time>2012-06-01T07:54:54Z</time>
      </trkpt>
      <trkpt lat="43.77607" lon="6.8143">
        <ele>1175.2</ele>
        <time>2012-06-01T07:55:08Z</time>
      </trkpt>
      <trkpt lat="43.77601" lon="6.81421">
        <ele>1175.8</ele>
        <time>2012-06-01T07:55:15Z</time>
      </trkpt>
      <trkpt lat="43.77596" lon="6.81412">
        <ele>1176.5</ele>
        <time>2012-06-01T07:55:22Z</time>
      </trkpt>
      <trkpt lat="43.77591" lon="6.81402">
        <ele>1176.9</ele>
        <time>2012-06-01T07:55:29Z</time>
      </trkpt>
      <trkpt lat="43.77587" lon="6.81392">
        <ele>1177.9</ele>
        <time>2012-06-01T07:55:36Z</time>
      </trkpt>
      <trkpt lat="43.77582" lon="6.81382">
        <ele>1178.2</ele>
        <time>2012-06-01T07:55:44Z</time>
      </trkpt>
      <trkpt lat="43.77581" lon="6.81372">
        <ele>1179.1</ele>
        <time>2012-06-01T07:55:50Z</time>
      </trkpt>
      <trkpt lat="43.7758" lon="6.8136">
        <ele>1179.4</ele>
        <time>2012-06-01T07:55:57Z</time>
      </trkpt>
      <trkpt lat="43.7758" lon="6.81358">
        <ele>1179.5</ele>
        <time>2012-06-01T07:55:58Z</time>
      </trkpt>
      <trkpt lat="43.77577" lon="6.81339">
        <ele>1179.6</ele>
        <time>2012-06-01T07:56:11Z</time>
      </trkpt>
      <trkpt lat="43.77577" lon="6.81327">
        <ele>1179.7</ele>
        <time>2012-06-01T07:56:18Z</time>
      </trkpt>
      <trkpt lat="43.77576" lon="6.81317">
        <ele>1178.9</ele>
        <time>2012-06-01T07:56:24Z</time>
      </trkpt>
      <trkpt lat="43.77573" lon="6.81307">
        <ele>1178.3</ele>
        <time>2012-06-01T07:56:31Z</time>
      </trkpt>
      <trkpt lat="43.77571" lon="6.81296">
        <ele>1177.8</ele>
        <time>2012-06-01T07:56:39Z</time>
      </trkpt>
      <trkpt lat="43.77567" lon="6.81286">
        <ele>1177.6</ele>
        <time>2012-06-01T07:56:44Z</time>
      </trkpt>
      <trkpt lat="43.77567" lon="6.81276">
        <ele>1176.6</ele>
        <time>2012-06-01T07:56:51Z</time>
      </trkpt>
      <trkpt lat="43.77568" lon="6.81264">
        <ele>1176.4</ele>
        <time>2012-06-01T07:57:00Z</time>
      </trkpt>
      <trkpt lat="43.77568" lon="6.81263">
        <ele>1176.4</ele>
        <time>2012-06-01T07:57:01Z</time>
      </trkpt>
      <trkpt lat="43.77574" lon="6.81255">
        <ele>1178.7</ele>
        <time>2012-06-01T07:58:30Z</time>
      </trkpt>
      <trkpt lat="43.77587" lon="6.8124">
        <ele>1181.7</ele>
        <time>2012-06-01T07:58:50Z</time>
      </trkpt>
      <trkpt lat="43.77592" lon="6.8123">
        <ele>1182.2</ele>
        <time>2012-06-01T07:59:02Z</time>
      </trkpt>
      <trkpt lat="43.77594" lon="6.8122">
        <ele>1183.7</ele>
        <time>2012-06-01T07:59:12Z</time>
      </trkpt>
      <trkpt lat="43.77596" lon="6.81208">
        <ele>1184.9</ele>
        <time>2012-06-01T07:59:24Z</time>
      </trkpt>
      <trkpt lat="43.77593" lon="6.81197">
        <ele>1185.4</ele>
        <time>2012-06-01T07:59:35Z</time>
      </trkpt>
      <trkpt lat="43.77592" lon="6.81196">
        <ele>1185.5</ele>
        <time>2012-06-01T07:59:36Z</time>
      </trkpt>
      <trkpt lat="43.77588" lon="6.81174">
        <ele>1185.6</ele>
        <time>2012-06-01T07:59:56Z</time>
      </trkpt>
      <trkpt lat="43.77596" lon="6.81169">
        <ele>1187.6</ele>
        <time>2012-06-01T08:00:11Z</time>
      </trkpt>
      <trkpt lat="43.77602" lon="6.81177">
        <ele>1189.7</ele>
        <time>2012-06-01T08:00:28Z</time>
      </trkpt>
      <trkpt lat="43.77606" lon="6.81188">
        <ele>1190.7</ele>
        <time>2012-06-01T08:00:57Z</time>
      </trkpt>
      <trkpt lat="43.77607" lon="6.81189">
        <ele>1191</ele>
        <time>2012-06-01T08:00:58Z</time>
      </trkpt>
      <trkpt lat="43.77611" lon="6.81211">
        <ele>1190.8</ele>
        <time>2012-06-01T08:01:11Z</time>
      </trkpt>
      <trkpt lat="43.77616" lon="6.8122">
        <ele>1190.8</ele>
        <time>2012-06-01T08:01:19Z</time>
      </trkpt>
      <trkpt lat="43.77621" lon="6.8123">
        <ele>1192</ele>
        <time>2012-06-01T08:01:31Z</time>
      </trkpt>
      <trkpt lat="43.77628" lon="6.81236">
        <ele>1193.9</ele>
        <time>2012-06-01T08:01:44Z</time>
      </trkpt>
      <trkpt lat="43.77636" lon="6.81243">
        <ele>1195.5</ele>
        <time>2012-06-01T08:01:58Z</time>
      </trkpt>
      <trkpt lat="43.77636" lon="6.81244">
        <ele>1195.5</ele>
        <time>2012-06-01T08:01:59Z</time>
      </trkpt>
      <trkpt lat="43.7765" lon="6.81257">
        <ele>1199</ele>
        <time>2012-06-01T08:02:33Z</time>
      </trkpt>
      <trkpt lat="43.77657" lon="6.81263">
        <ele>1199.9</ele>
        <time>2012-06-01T08:03:15Z</time>
      </trkpt>
      <trkpt lat="43.77658" lon="6.81263">
        <ele>1199.8</ele>
        <time>2012-06-01T08:03:16Z</time>
      </trkpt>
      <trkpt lat="43.77668" lon="6.81277">
        <ele>1202.3</ele>
        <time>2012-06-01T08:04:00Z</time>
      </trkpt>
      <trkpt lat="43.77676" lon="6.81281">
        <ele>1203.2</ele>
        <time>2012-06-01T08:04:10Z</time>
      </trkpt>
      <trkpt lat="43.77684" lon="6.81281">
        <ele>1205.2</ele>
        <time>2012-06-01T08:04:21Z</time>
      </trkpt>
      <trkpt lat="43.77685" lon="6.81281">
        <ele>1205.4</ele>
        <time>2012-06-01T08:04:22Z</time>
      </trkpt>
      <trkpt lat="43.77699" lon="6.81293">
        <ele>1209.2</ele>
        <time>2012-06-01T08:04:56Z</time>
      </trkpt>
      <trkpt lat="43.77707" lon="6.81293">
        <ele>1211.4</ele>
        <time>2012-06-01T08:05:08Z</time>
      </trkpt>
      <trkpt lat="43.77716" lon="6.81295">
        <ele>1213.3</ele>
        <time>2012-06-01T08:05:20Z</time>
      </trkpt>
      <trkpt lat="43.77724" lon="6.8129">
        <ele>1214.1</ele>
        <time>2012-06-01T08:05:46Z</time>
      </trkpt>
      <trkpt lat="43.77724" lon="6.81289">
        <ele>1214</ele>
        <time>2012-06-01T08:05:47Z</time>
      </trkpt>
      <trkpt lat="43.77734" lon="6.8129">
        <ele>1215.3</ele>
        <time>2012-06-01T08:06:52Z</time>
      </trkpt>
      <trkpt lat="43.77746" lon="6.81275">
        <ele>1217.4</ele>
        <time>2012-06-01T08:07:16Z</time>
      </trkpt>
      <trkpt lat="43.77748" lon="6.81263">
        <ele>1219</ele>
        <time>2012-06-01T08:07:40Z</time>
      </trkpt>
      <trkpt lat="43.77755" lon="6.81255">
        <ele>1220.9</ele>
        <time>2012-06-01T08:07:52Z</time>
      </trkpt>
      <trkpt lat="43.77756" lon="6.81254">
        <ele>1221</ele>
        <time>2012-06-01T08:07:53Z</time>
      </trkpt>
      <trkpt lat="43.77772" lon="6.81258">
        <ele>1222.8</ele>
        <time>2012-06-01T08:08:15Z</time>
      </trkpt>
      <trkpt lat="43.7778" lon="6.8126">
        <ele>1223.1</ele>
        <time>2012-06-01T08:08:25Z</time>
      </trkpt>
      <trkpt lat="43.77788" lon="6.81264">
        <ele>1223.9</ele>
        <time>2012-06-01T08:08:36Z</time>
      </trkpt>
      <trkpt lat="43.77796" lon="6.8127">
        <ele>1225.1</ele>
        <time>2012-06-01T08:08:53Z</time>
      </trkpt>
      <trkpt lat="43.77797" lon="6.81269">
        <ele>1225.2</ele>
        <time>2012-06-01T08:08:54Z</time>
      </trkpt>
      <trkpt lat="43.77813" lon="6.81272">
        <ele>1228.7</ele>
        <time>2012-06-01T08:09:33Z</time>
      </trkpt>
      <trkpt lat="43.77821" lon="6.81268">
        <ele>1229.9</ele>
        <time>2012-06-01T08:09:50Z</time>
      </trkpt>
      <trkpt lat="43.77829" lon="6.81263">
        <ele>1230.9</ele>
        <time>2012-06-01T08:10:14Z</time>
      </trkpt>
      <trkpt lat="43.77829" lon="6.81263">
        <ele>1231</ele>
        <time>2012-06-01T08:10:15Z</time>
      </trkpt>
      <trkpt lat="43.77843" lon="6.8125">
        <ele>1235.5</ele>
        <time>2012-06-01T08:10:49Z</time>
      </trkpt>
      <trkpt lat="43.77847" lon="6.81238">
        <ele>1238.1</ele>
        <time>2012-06-01T08:11:06Z</time>
      </trkpt>
      <trkpt lat="43.77855" lon="6.81239">
        <ele>1242.2</ele>
        <time>2012-06-01T08:13:48Z</time>
      </trkpt>
      <trkpt lat="43.77856" lon="6.81239">
        <ele>1242.6</ele>
        <time>2012-06-01T08:13:49Z</time>
      </trkpt>
      <trkpt lat="43.77871" lon="6.81249">
        <ele>1247.5</ele>
        <time>2012-06-01T08:14:19Z</time>
      </trkpt>
      <trkpt lat="43.77878" lon="6.81257">
        <ele>1249.9</ele>
        <time>2012-06-01T08:14:37Z</time>
      </trkpt>
      <trkpt lat="43.77882" lon="6.81268">
        <ele>1251.7</ele>
        <time>2012-06-01T08:14:50Z</time>
      </trkpt>
      <trkpt lat="43.77882" lon="6.81268">
        <ele>1251.6</ele>
        <time>2012-06-01T08:14:51Z</time>
      </trkpt>
      <trkpt lat="43.77895" lon="6.81284">
        <ele>1255.3</ele>
        <time>2012-06-01T08:15:20Z</time>
      </trkpt>
      <trkpt lat="43.779" lon="6.81294">
        <ele>1257.6</ele>
        <time>2012-06-01T08:15:55Z</time>
      </trkpt>
      <trkpt lat="43.77901" lon="6.81294">
        <ele>1257.8</ele>
        <time>2012-06-01T08:15:56Z</time>
      </trkpt>
      <trkpt lat="43.77915" lon="6.81305">
        <ele>1261.4</ele>
        <time>2012-06-01T08:16:21Z</time>
      </trkpt>
      <trkpt lat="43.77923" lon="6.81311">
        <ele>1262.4</ele>
        <time>2012-06-01T08:16:39Z</time>
      </trkpt>
      <trkpt lat="43.7793" lon="6.81319">
        <ele>1265.2</ele>
        <time>2012-06-01T08:16:57Z</time>
      </trkpt>
      <trkpt lat="43.77931" lon="6.81319">
        <ele>1265.5</ele>
        <time>2012-06-01T08:16:58Z</time>
      </trkpt>
      <trkpt lat="43.77945" lon="6.81332">
        <ele>1269.8</ele>
        <time>2012-06-01T08:17:32Z</time>
      </trkpt>
      <trkpt lat="43.77952" lon="6.81339">
        <ele>1271.3</ele>
        <time>2012-06-01T08:18:33Z</time>
      </trkpt>
      <trkpt lat="43.77952" lon="6.8134">
        <ele>1271.4</ele>
        <time>2012-06-01T08:18:34Z</time>
      </trkpt>
      <trkpt lat="43.77963" lon="6.81358">
        <ele>1274</ele>
        <time>2012-06-01T08:19:44Z</time>
      </trkpt>
      <trkpt lat="43.77963" lon="6.81358">
        <ele>1274</ele>
        <time>2012-06-01T08:19:45Z</time>
      </trkpt>
      <trkpt lat="43.77976" lon="6.81375">
        <ele>1276.7</ele>
        <time>2012-06-01T08:20:25Z</time>
      </trkpt>
      <trkpt lat="43.7798" lon="6.81384">
        <ele>1277.8</ele>
        <time>2012-06-01T08:20:40Z</time>
      </trkpt>
      <trkpt lat="43.77986" lon="6.81394">
        <ele>1279.7</ele>
        <time>2012-06-01T08:20:56Z</time>
      </trkpt>
      <trkpt lat="43.77987" lon="6.81394">
        <ele>1280</ele>
        <time>2012-06-01T08:20:57Z</time>
      </trkpt>
      <trkpt lat="43.78" lon="6.81409">
        <ele>1281.9</ele>
        <time>2012-06-01T08:21:33Z</time>
      </trkpt>
      <trkpt lat="43.78008" lon="6.81409">
        <ele>1282.4</ele>
        <time>2012-06-01T08:23:11Z</time>
      </trkpt>
      <trkpt lat="43.78009" lon="6.81409">
        <ele>1282.3</ele>
        <time>2012-06-01T08:23:12Z</time>
      </trkpt>
      <trkpt lat="43.78022" lon="6.81422">
        <ele>1287.6</ele>
        <time>2012-06-01T08:23:46Z</time>
      </trkpt>
      <trkpt lat="43.78027" lon="6.81431">
        <ele>1288.7</ele>
        <time>2012-06-01T08:24:00Z</time>
      </trkpt>
      <trkpt lat="43.78032" lon="6.81441">
        <ele>1289.7</ele>
        <time>2012-06-01T08:24:13Z</time>
      </trkpt>
      <trkpt lat="43.78033" lon="6.81441">
        <ele>1289.9</ele>
        <time>2012-06-01T08:24:14Z</time>
      </trkpt>
      <trkpt lat="43.7804" lon="6.81462">
        <ele>1292.1</ele>
        <time>2012-06-01T08:24:57Z</time>
      </trkpt>
      <trkpt lat="43.78045" lon="6.81472">
        <ele>1294.1</ele>
        <time>2012-06-01T08:25:10Z</time>
      </trkpt>
      <trkpt lat="43.78052" lon="6.81479">
        <ele>1296.1</ele>
        <time>2012-06-01T08:25:23Z</time>
      </trkpt>
      <trkpt lat="43.78052" lon="6.81479">
        <ele>1296.1</ele>
        <time>2012-06-01T08:25:24Z</time>
      </trkpt>
      <trkpt lat="43.78068" lon="6.81488">
        <ele>1298.6</ele>
        <time>2012-06-01T08:25:51Z</time>
      </trkpt>
      <trkpt lat="43.78076" lon="6.81491">
        <ele>1299.7</ele>
        <time>2012-06-01T08:26:04Z</time>
      </trkpt>
      <trkpt lat="43.78084" lon="6.81496">
        <ele>1299.8</ele>
        <time>2012-06-01T08:26:15Z</time>
      </trkpt>
      <trkpt lat="43.78091" lon="6.81502">
        <ele>1300.2</ele>
        <time>2012-06-01T08:26:24Z</time>
      </trkpt>
      <trkpt lat="43.78099" lon="6.81507">
        <ele>1301.6</ele>
        <time>2012-06-01T08:26:35Z</time>
      </trkpt>
      <trkpt lat="43.781" lon="6.81508">
        <ele>1301.6</ele>
        <time>2012-06-01T08:26:36Z</time>
      </trkpt>
      <trkpt lat="43.78116" lon="6.81515">
        <ele>1304.7</ele>
        <time>2012-06-01T08:27:08Z</time>
      </trkpt>
      <trkpt lat="43.78125" lon="6.81514">
        <ele>1305.4</ele>
        <time>2012-06-01T08:27:22Z</time>
      </trkpt>
      <trkpt lat="43.78133" lon="6.81516">
        <ele>1306.1</ele>
        <time>2012-06-01T08:27:38Z</time>
      </trkpt>
      <trkpt lat="43.78134" lon="6.81516">
        <ele>1306.4</ele>
        <time>2012-06-01T08:27:39Z</time>
      </trkpt>
      <trkpt lat="43.7815" lon="6.81515">
        <ele>1308.3</ele>
        <time>2012-06-01T08:28:01Z</time>
      </trkpt>
      <trkpt lat="43.78158" lon="6.81516">
        <ele>1309.3</ele>
        <time>2012-06-01T08:28:12Z</time>
      </trkpt>
      <trkpt lat="43.78166" lon="6.81518">
        <ele>1310.1</ele>
        <time>2012-06-01T08:28:21Z</time>
      </trkpt>
      <trkpt lat="43.78175" lon="6.81516">
        <ele>1310.3</ele>
        <time>2012-06-01T08:28:29Z</time>
      </trkpt>
      <trkpt lat="43.78183" lon="6.81518">
        <ele>1311.5</ele>
        <time>2012-06-01T08:28:39Z</time>
      </trkpt>
      <trkpt lat="43.78192" lon="6.81518">
        <ele>1312.1</ele>
        <time>2012-06-01T08:28:54Z</time>
      </trkpt>
      <trkpt lat="43.78192" lon="6.81517">
        <ele>1312.2</ele>
        <time>2012-06-01T08:28:55Z</time>
      </trkpt>
      <trkpt lat="43.78198" lon="6.81496">
        <ele>1312.8</ele>
        <time>2012-06-01T08:30:32Z</time>
      </trkpt>
      <trkpt lat="43.78199" lon="6.81496">
        <ele>1312.7</ele>
        <time>2012-06-01T08:30:33Z</time>
      </trkpt>
      <trkpt lat="43.78215" lon="6.815">
        <ele>1314.4</ele>
        <time>2012-06-01T08:31:37Z</time>
      </trkpt>
      <trkpt lat="43.78216" lon="6.815">
        <ele>1314.3</ele>
        <time>2012-06-01T08:31:38Z</time>
      </trkpt>
      <trkpt lat="43.78228" lon="6.81483">
        <ele>1314.5</ele>
        <time>2012-06-01T08:32:05Z</time>
      </trkpt>
      <trkpt lat="43.78236" lon="6.8148">
        <ele>1314.8</ele>
        <time>2012-06-01T08:32:23Z</time>
      </trkpt>
      <trkpt lat="43.78243" lon="6.81475">
        <ele>1314.9</ele>
        <time>2012-06-01T08:32:30Z</time>
      </trkpt>
      <trkpt lat="43.7825" lon="6.81468">
        <ele>1315.6</ele>
        <time>2012-06-01T08:32:38Z</time>
      </trkpt>
      <trkpt lat="43.78251" lon="6.81467">
        <ele>1315.6</ele>
        <time>2012-06-01T08:32:39Z</time>
      </trkpt>
      <trkpt lat="43.78262" lon="6.81457">
        <ele>1316.2</ele>
        <time>2012-06-01T08:33:01Z</time>
      </trkpt>
      <trkpt lat="43.78266" lon="6.81446">
        <ele>1316.4</ele>
        <time>2012-06-01T08:33:07Z</time>
      </trkpt>
      <trkpt lat="43.7827" lon="6.81435">
        <ele>1316.5</ele>
        <time>2012-06-01T08:33:14Z</time>
      </trkpt>
      <trkpt lat="43.7827" lon="6.81424">
        <ele>1317</ele>
        <time>2012-06-01T08:33:23Z</time>
      </trkpt>
      <trkpt lat="43.7827" lon="6.81412">
        <ele>1317.2</ele>
        <time>2012-06-01T08:33:32Z</time>
      </trkpt>
      <trkpt lat="43.78271" lon="6.81401">
        <ele>1318.2</ele>
        <time>2012-06-01T08:33:40Z</time>
      </trkpt>
      <trkpt lat="43.78271" lon="6.81399">
        <ele>1318.1</ele>
        <time>2012-06-01T08:33:41Z</time>
      </trkpt>
      <trkpt lat="43.78265" lon="6.81377">
        <ele>1318.9</ele>
        <time>2012-06-01T08:33:59Z</time>
      </trkpt>
      <trkpt lat="43.78263" lon="6.81367">
        <ele>1319.6</ele>
        <time>2012-06-01T08:34:09Z</time>
      </trkpt>
      <trkpt lat="43.78262" lon="6.81355">
        <ele>1319.3</ele>
        <time>2012-06-01T08:34:22Z</time>
      </trkpt>
      <trkpt lat="43.78267" lon="6.81345">
        <ele>1320.5</ele>
        <time>2012-06-01T08:34:36Z</time>
      </trkpt>
      <trkpt lat="43.78271" lon="6.81334">
        <ele>1322.1</ele>
        <time>2012-06-01T08:34:45Z</time>
      </trkpt>
      <trkpt lat="43.78271" lon="6.81333">
        <ele>1322.3</ele>
        <time>2012-06-01T08:34:46Z</time>
      </trkpt>
      <trkpt lat="43.78262" lon="6.81315">
        <ele>1323.9</ele>
        <time>2012-06-01T08:35:06Z</time>
      </trkpt>
      <trkpt lat="43.78258" lon="6.81304">
        <ele>1324.5</ele>
        <time>2012-06-01T08:35:18Z</time>
      </trkpt>
      <trkpt lat="43.78265" lon="6.81311">
        <ele>1328.3</ele>
        <time>2012-06-01T08:35:51Z</time>
      </trkpt>
      <trkpt lat="43.78266" lon="6.81311">
        <ele>1328.5</ele>
        <time>2012-06-01T08:35:52Z</time>
      </trkpt>
      <trkpt lat="43.78282" lon="6.81314">
        <ele>1330.4</ele>
        <time>2012-06-01T08:36:22Z</time>
      </trkpt>
      <trkpt lat="43.7829" lon="6.81316">
        <ele>1330.5</ele>
        <time>2012-06-01T08:36:37Z</time>
      </trkpt>
      <trkpt lat="43.78299" lon="6.81314">
        <ele>1332</ele>
        <time>2012-06-01T08:36:47Z</time>
      </trkpt>
      <trkpt lat="43.78306" lon="6.81308">
        <ele>1332.1</ele>
        <time>2012-06-01T08:36:54Z</time>
      </trkpt>
      <trkpt lat="43.78306" lon="6.81307">
        <ele>1332.4</ele>
        <time>2012-06-01T08:36:55Z</time>
      </trkpt>
      <trkpt lat="43.78316" lon="6.8129">
        <ele>1332.7</ele>
        <time>2012-06-01T08:37:09Z</time>
      </trkpt>
      <trkpt lat="43.78319" lon="6.81278">
        <ele>1333.2</ele>
        <time>2012-06-01T08:37:17Z</time>
      </trkpt>
      <trkpt lat="43.78321" lon="6.81267">
        <ele>1332.5</ele>
        <time>2012-06-01T08:37:25Z</time>
      </trkpt>
      <trkpt lat="43.78326" lon="6.81257">
        <ele>1332.3</ele>
        <time>2012-06-01T08:37:33Z</time>
      </trkpt>
      <trkpt lat="43.7833" lon="6.81246">
        <ele>1331.8</ele>
        <time>2012-06-01T08:37:46Z</time>
      </trkpt>
      <trkpt lat="43.78333" lon="6.81235">
        <ele>1332.4</ele>
        <time>2012-06-01T08:37:59Z</time>
      </trkpt>
      <trkpt lat="43.78334" lon="6.81234">
        <ele>1332.5</ele>
        <time>2012-06-01T08:38:00Z</time>
      </trkpt>
      <trkpt lat="43.78331" lon="6.81216">
        <ele>1333.4</ele>
        <time>2012-06-01T08:38:31Z</time>
      </trkpt>
      <trkpt lat="43.78337" lon="6.81208">
        <ele>1334.1</ele>
        <time>2012-06-01T08:38:42Z</time>
      </trkpt>
      <trkpt lat="43.78342" lon="6.81198">
        <ele>1334.4</ele>
        <time>2012-06-01T08:38:57Z</time>
      </trkpt>
      <trkpt lat="43.78346" lon="6.81186">
        <ele>1334.4</ele>
        <time>2012-06-01T08:39:04Z</time>
      </trkpt>
      <trkpt lat="43.78346" lon="6.81185">
        <ele>1333.9</ele>
        <time>2012-06-01T08:39:05Z</time>
      </trkpt>
      <trkpt lat="43.78353" lon="6.81167">
        <ele>1335.4</ele>
        <time>2012-06-01T08:39:19Z</time>
      </trkpt>
      <trkpt lat="43.78357" lon="6.81157">
        <ele>1335.3</ele>
        <time>2012-06-01T08:39:26Z</time>
      </trkpt>
      <trkpt lat="43.78358" lon="6.81144">
        <ele>1336.4</ele>
        <time>2012-06-01T08:39:37Z</time>
      </trkpt>
      <trkpt lat="43.78359" lon="6.81133">
        <ele>1335.3</ele>
        <time>2012-06-01T08:39:56Z</time>
      </trkpt>
      <trkpt lat="43.78365" lon="6.81125">
        <ele>1334.9</ele>
        <time>2012-06-01T08:40:05Z</time>
      </trkpt>
      <trkpt lat="43.78366" lon="6.81124">
        <ele>1334.6</ele>
        <time>2012-06-01T08:40:06Z</time>
      </trkpt>
      <trkpt lat="43.78381" lon="6.81118">
        <ele>1334.5</ele>
        <time>2012-06-01T08:40:23Z</time>
      </trkpt>
      <trkpt lat="43.78389" lon="6.81114">
        <ele>1333.9</ele>
        <time>2012-06-01T08:40:33Z</time>
      </trkpt>
      <trkpt lat="43.78396" lon="6.81109">
        <ele>1334.1</ele>
        <time>2012-06-01T08:40:40Z</time>
      </trkpt>
      <trkpt lat="43.78404" lon="6.81104">
        <ele>1333.9</ele>
        <time>2012-06-01T08:40:49Z</time>
      </trkpt>
      <trkpt lat="43.78412" lon="6.81099">
        <ele>1333.5</ele>
        <time>2012-06-01T08:40:56Z</time>
      </trkpt>
      <trkpt lat="43.7842" lon="6.81094">
        <ele>1333.5</ele>
        <time>2012-06-01T08:41:07Z</time>
      </trkpt>
      <trkpt lat="43.7842" lon="6.81093">
        <ele>1333.3</ele>
        <time>2012-06-01T08:41:08Z</time>
      </trkpt>
      <trkpt lat="43.78429" lon="6.81075">
        <ele>1334.5</ele>
        <time>2012-06-01T08:41:20Z</time>
      </trkpt>
      <trkpt lat="43.78436" lon="6.81067">
        <ele>1336.5</ele>
        <time>2012-06-01T08:41:28Z</time>
      </trkpt>
      <trkpt lat="43.78441" lon="6.81057">
        <ele>1337.8</ele>
        <time>2012-06-01T08:42:00Z</time>
      </trkpt>
      <trkpt lat="43.78446" lon="6.8105">
        <ele>1337.9</ele>
        <time>2012-06-01T08:42:07Z</time>
      </trkpt>
      <trkpt lat="43.78451" lon="6.8104">
        <ele>1337.7</ele>
        <time>2012-06-01T08:42:14Z</time>
      </trkpt>
      <trkpt lat="43.78451" lon="6.81038">
        <ele>1337.9</ele>
        <time>2012-06-01T08:42:15Z</time>
      </trkpt>
      <trkpt lat="43.7846" lon="6.81019">
        <ele>1337.9</ele>
        <time>2012-06-01T08:42:30Z</time>
      </trkpt>
      <trkpt lat="43.78462" lon="6.81008">
        <ele>1337.8</ele>
        <time>2012-06-01T08:42:39Z</time>
      </trkpt>
      <trkpt lat="43.7847" lon="6.81003">
        <ele>1335.9</ele>
        <time>2012-06-01T08:43:16Z</time>
      </trkpt>
      <trkpt lat="43.7847" lon="6.81003">
        <ele>1336.3</ele>
        <time>2012-06-01T08:43:17Z</time>
      </trkpt>
      <trkpt lat="43.78456" lon="6.80991">
        <ele>1338.1</ele>
        <time>2012-06-01T08:44:12Z</time>
      </trkpt>
      <trkpt lat="43.78447" lon="6.80995">
        <ele>1339.4</ele>
        <time>2012-06-01T08:45:26Z</time>
      </trkpt>
      <trkpt lat="43.78447" lon="6.80995">
        <ele>1339.2</ele>
        <time>2012-06-01T08:45:27Z</time>
      </trkpt>
      <trkpt lat="43.78457" lon="6.80994">
        <ele>1340.2</ele>
        <time>2012-06-01T08:47:02Z</time>
      </trkpt>
      <trkpt lat="43.78463" lon="6.80973">
        <ele>1337.8</ele>
        <time>2012-06-01T08:47:19Z</time>
      </trkpt>
      <trkpt lat="43.78466" lon="6.80961">
        <ele>1336.8</ele>
        <time>2012-06-01T08:47:26Z</time>
      </trkpt>
      <trkpt lat="43.78466" lon="6.80949">
        <ele>1336</ele>
        <time>2012-06-01T08:47:33Z</time>
      </trkpt>
      <trkpt lat="43.78468" lon="6.8094">
        <ele>1336.5</ele>
        <time>2012-06-01T08:47:39Z</time>
      </trkpt>
      <trkpt lat="43.78472" lon="6.8093">
        <ele>1336.2</ele>
        <time>2012-06-01T08:47:45Z</time>
      </trkpt>
      <trkpt lat="43.78469" lon="6.80919">
        <ele>1336.4</ele>
        <time>2012-06-01T08:47:51Z</time>
      </trkpt>
      <trkpt lat="43.7847" lon="6.80908">
        <ele>1335.9</ele>
        <time>2012-06-01T08:47:59Z</time>
      </trkpt>
      <trkpt lat="43.78466" lon="6.80898">
        <ele>1336</ele>
        <time>2012-06-01T08:48:06Z</time>
      </trkpt>
      <trkpt lat="43.78465" lon="6.80895">
        <ele>1336</ele>
        <time>2012-06-01T08:48:07Z</time>
      </trkpt>
      <trkpt lat="43.78464" lon="6.80877">
        <ele>1336.1</ele>
        <time>2012-06-01T08:48:18Z</time>
      </trkpt>
      <trkpt lat="43.78465" lon="6.80865">
        <ele>1335.6</ele>
        <time>2012-06-01T08:48:25Z</time>
      </trkpt>
      <trkpt lat="43.78465" lon="6.80855">
        <ele>1336</ele>
        <time>2012-06-01T08:48:32Z</time>
      </trkpt>
      <trkpt lat="43.78466" lon="6.80842">
        <ele>1334.6</ele>
        <time>2012-06-01T08:48:41Z</time>
      </trkpt>
      <trkpt lat="43.78466" lon="6.80831">
        <ele>1334</ele>
        <time>2012-06-01T08:48:51Z</time>
      </trkpt>
      <trkpt lat="43.78467" lon="6.80819">
        <ele>1335.3</ele>
        <time>2012-06-01T08:49:01Z</time>
      </trkpt>
      <trkpt lat="43.78468" lon="6.80807">
        <ele>1334.2</ele>
        <time>2012-06-01T08:49:08Z</time>
      </trkpt>
      <trkpt lat="43.78468" lon="6.80805">
        <ele>1334.3</ele>
        <time>2012-06-01T08:49:09Z</time>
      </trkpt>
      <trkpt lat="43.78474" lon="6.80784">
        <ele>1334.3</ele>
        <time>2012-06-01T08:49:24Z</time>
      </trkpt>
      <trkpt lat="43.78473" lon="6.80772">
        <ele>1334.1</ele>
        <time>2012-06-01T08:49:33Z</time>
      </trkpt>
      <trkpt lat="43.78476" lon="6.80761">
        <ele>1333.9</ele>
        <time>2012-06-01T08:49:42Z</time>
      </trkpt>
      <trkpt lat="43.78479" lon="6.80751">
        <ele>1332.7</ele>
        <time>2012-06-01T08:49:50Z</time>
      </trkpt>
      <trkpt lat="43.78479" lon="6.80739">
        <ele>1333.2</ele>
        <time>2012-06-01T08:49:59Z</time>
      </trkpt>
      <trkpt lat="43.78475" lon="6.80729">
        <ele>1332.9</ele>
        <time>2012-06-01T08:50:05Z</time>
      </trkpt>
      <trkpt lat="43.78473" lon="6.80717">
        <ele>1332.1</ele>
        <time>2012-06-01T08:50:13Z</time>
      </trkpt>
      <trkpt lat="43.78473" lon="6.80715">
        <ele>1331.9</ele>
        <time>2012-06-01T08:50:14Z</time>
      </trkpt>
      <trkpt lat="43.78468" lon="6.80696">
        <ele>1331.8</ele>
        <time>2012-06-01T08:50:30Z</time>
      </trkpt>
      <trkpt lat="43.78469" lon="6.80684">
        <ele>1332.5</ele>
        <time>2012-06-01T08:50:49Z</time>
      </trkpt>
      <trkpt lat="43.78469" lon="6.80672">
        <ele>1333.5</ele>
        <time>2012-06-01T08:50:56Z</time>
      </trkpt>
      <trkpt lat="43.78469" lon="6.8066">
        <ele>1335.4</ele>
        <time>2012-06-01T08:51:05Z</time>
      </trkpt>
      <trkpt lat="43.78468" lon="6.8065">
        <ele>1336.7</ele>
        <time>2012-06-01T08:51:12Z</time>
      </trkpt>
      <trkpt lat="43.78468" lon="6.80638">
        <ele>1336.4</ele>
        <time>2012-06-01T08:51:18Z</time>
      </trkpt>
      <trkpt lat="43.78469" lon="6.80636">
        <ele>1336.9</ele>
        <time>2012-06-01T08:51:19Z</time>
      </trkpt>
      <trkpt lat="43.78466" lon="6.80615">
        <ele>1339</ele>
        <time>2012-06-01T08:51:35Z</time>
      </trkpt>
      <trkpt lat="43.78468" lon="6.80605">
        <ele>1339</ele>
        <time>2012-06-01T08:51:42Z</time>
      </trkpt>
      <trkpt lat="43.78467" lon="6.80593">
        <ele>1338.5</ele>
        <time>2012-06-01T08:51:54Z</time>
      </trkpt>
      <trkpt lat="43.78467" lon="6.80582">
        <ele>1338.4</ele>
        <time>2012-06-01T08:52:03Z</time>
      </trkpt>
      <trkpt lat="43.78469" lon="6.8057">
        <ele>1336.8</ele>
        <time>2012-06-01T08:52:12Z</time>
      </trkpt>
      <trkpt lat="43.78469" lon="6.80558">
        <ele>1335.2</ele>
        <time>2012-06-01T08:52:23Z</time>
      </trkpt>
      <trkpt lat="43.7847" lon="6.80557">
        <ele>1335.6</ele>
        <time>2012-06-01T08:52:24Z</time>
      </trkpt>
      <trkpt lat="43.78468" lon="6.80535">
        <ele>1334.4</ele>
        <time>2012-06-01T08:52:43Z</time>
      </trkpt>
      <trkpt lat="43.78469" lon="6.80523">
        <ele>1333.5</ele>
        <time>2012-06-01T08:52:51Z</time>
      </trkpt>
      <trkpt lat="43.78467" lon="6.80511">
        <ele>1334.7</ele>
        <time>2012-06-01T08:52:58Z</time>
      </trkpt>
      <trkpt lat="43.78471" lon="6.80501">
        <ele>1334</ele>
        <time>2012-06-01T08:53:09Z</time>
      </trkpt>
      <trkpt lat="43.78477" lon="6.80493">
        <ele>1331.7</ele>
        <time>2012-06-01T08:53:23Z</time>
      </trkpt>
      <trkpt lat="43.78476" lon="6.80482">
        <ele>1331.2</ele>
        <time>2012-06-01T08:53:35Z</time>
      </trkpt>
      <trkpt lat="43.78476" lon="6.8048">
        <ele>1331.3</ele>
        <time>2012-06-01T08:53:36Z</time>
      </trkpt>
      <trkpt lat="43.78474" lon="6.80459">
        <ele>1330.2</ele>
        <time>2012-06-01T08:54:22Z</time>
      </trkpt>
      <trkpt lat="43.78467" lon="6.8045">
        <ele>1330.1</ele>
        <time>2012-06-01T08:54:36Z</time>
      </trkpt>
      <trkpt lat="43.78467" lon="6.80449">
        <ele>1330</ele>
        <time>2012-06-01T08:54:37Z</time>
      </trkpt>
      <trkpt lat="43.7847" lon="6.80429">
        <ele>1330</ele>
        <time>2012-06-01T08:54:53Z</time>
      </trkpt>
      <trkpt lat="43.78468" lon="6.80418">
        <ele>1330.8</ele>
        <time>2012-06-01T08:55:00Z</time>
      </trkpt>
      <trkpt lat="43.78469" lon="6.80406">
        <ele>1330.5</ele>
        <time>2012-06-01T08:55:08Z</time>
      </trkpt>
      <trkpt lat="43.78466" lon="6.80396">
        <ele>1330.7</ele>
        <time>2012-06-01T08:55:16Z</time>
      </trkpt>
      <trkpt lat="43.78465" lon="6.80384">
        <ele>1331.3</ele>
        <time>2012-06-01T08:55:24Z</time>
      </trkpt>
      <trkpt lat="43.78467" lon="6.80373">
        <ele>1331.8</ele>
        <time>2012-06-01T08:55:34Z</time>
      </trkpt>
      <trkpt lat="43.78469" lon="6.80361">
        <ele>1331.5</ele>
        <time>2012-06-01T08:55:45Z</time>
      </trkpt>
      <trkpt lat="43.78469" lon="6.8036">
        <ele>1331.3</ele>
        <time>2012-06-01T08:55:46Z</time>
      </trkpt>
      <trkpt lat="43.7847" lon="6.80337">
        <ele>1332.7</ele>
        <time>2012-06-01T08:56:06Z</time>
      </trkpt>
      <trkpt lat="43.78469" lon="6.80325">
        <ele>1332.5</ele>
        <time>2012-06-01T08:56:16Z</time>
      </trkpt>
      <trkpt lat="43.78467" lon="6.80313">
        <ele>1332.3</ele>
        <time>2012-06-01T08:56:27Z</time>
      </trkpt>
      <trkpt lat="43.78462" lon="6.80305">
        <ele>1332.6</ele>
        <time>2012-06-01T08:56:40Z</time>
      </trkpt>
      <trkpt lat="43.78461" lon="6.80293">
        <ele>1332</ele>
        <time>2012-06-01T08:56:51Z</time>
      </trkpt>
      <trkpt lat="43.78461" lon="6.80291">
        <ele>1332.1</ele>
        <time>2012-06-01T08:56:52Z</time>
      </trkpt>
      <trkpt lat="43.78462" lon="6.80269">
        <ele>1332.5</ele>
        <time>2012-06-01T08:57:11Z</time>
      </trkpt>
      <trkpt lat="43.78462" lon="6.80257">
        <ele>1333.3</ele>
        <time>2012-06-01T08:57:21Z</time>
      </trkpt>
      <trkpt lat="43.78463" lon="6.80246">
        <ele>1333.6</ele>
        <time>2012-06-01T08:57:34Z</time>
      </trkpt>
      <trkpt lat="43.78463" lon="6.80235">
        <ele>1334.4</ele>
        <time>2012-06-01T08:57:43Z</time>
      </trkpt>
      <trkpt lat="43.78466" lon="6.80224">
        <ele>1334.4</ele>
        <time>2012-06-01T08:57:53Z</time>
      </trkpt>
      <trkpt lat="43.78466" lon="6.80223">
        <ele>1334.1</ele>
        <time>2012-06-01T08:57:54Z</time>
      </trkpt>
      <trkpt lat="43.78473" lon="6.80202">
        <ele>1334.4</ele>
        <time>2012-06-01T08:58:14Z</time>
      </trkpt>
      <trkpt lat="43.78475" lon="6.80191">
        <ele>1335.6</ele>
        <time>2012-06-01T08:58:24Z</time>
      </trkpt>
      <trkpt lat="43.78477" lon="6.80179">
        <ele>1335.1</ele>
        <time>2012-06-01T08:58:34Z</time>
      </trkpt>
      <trkpt lat="43.78476" lon="6.80167">
        <ele>1335.2</ele>
        <time>2012-06-01T08:58:44Z</time>
      </trkpt>
      <trkpt lat="43.78477" lon="6.80155">
        <ele>1334.9</ele>
        <time>2012-06-01T08:58:56Z</time>
      </trkpt>
      <trkpt lat="43.78477" lon="6.80154">
        <ele>1335.1</ele>
        <time>2012-06-01T08:58:57Z</time>
      </trkpt>
      <trkpt lat="43.78473" lon="6.80133">
        <ele>1336.3</ele>
        <time>2012-06-01T08:59:17Z</time>
      </trkpt>
      <trkpt lat="43.78472" lon="6.80121">
        <ele>1336.2</ele>
        <time>2012-06-01T08:59:27Z</time>
      </trkpt>
      <trkpt lat="43.7847" lon="6.80109">
        <ele>1338.7</ele>
        <time>2012-06-01T08:59:38Z</time>
      </trkpt>
      <trkpt lat="43.78466" lon="6.80098">
        <ele>1338</ele>
        <time>2012-06-01T08:59:49Z</time>
      </trkpt>
      <trkpt lat="43.78469" lon="6.80087">
        <ele>1338.7</ele>
        <time>2012-06-01T08:59:58Z</time>
      </trkpt>
      <trkpt lat="43.78469" lon="6.80085">
        <ele>1338.5</ele>
        <time>2012-06-01T08:59:59Z</time>
      </trkpt>
      <trkpt lat="43.78462" lon="6.80064">
        <ele>1338.8</ele>
        <time>2012-06-01T09:00:20Z</time>
      </trkpt>
      <trkpt lat="43.7846" lon="6.80054">
        <ele>1339.3</ele>
        <time>2012-06-01T09:00:29Z</time>
      </trkpt>
      <trkpt lat="43.78456" lon="6.80043">
        <ele>1340.7</ele>
        <time>2012-06-01T09:00:38Z</time>
      </trkpt>
      <trkpt lat="43.78452" lon="6.80032">
        <ele>1340.9</ele>
        <time>2012-06-01T09:00:49Z</time>
      </trkpt>
      <trkpt lat="43.78451" lon="6.8002">
        <ele>1341.6</ele>
        <time>2012-06-01T09:00:59Z</time>
      </trkpt>
      <trkpt lat="43.78447" lon="6.8001">
        <ele>1342.6</ele>
        <time>2012-06-01T09:01:12Z</time>
      </trkpt>
      <trkpt lat="43.78447" lon="6.80009">
        <ele>1342.4</ele>
        <time>2012-06-01T09:01:13Z</time>
      </trkpt>
      <trkpt lat="43.78433" lon="6.79997">
        <ele>1343.9</ele>
        <time>2012-06-01T09:01:53Z</time>
      </trkpt>
      <trkpt lat="43.78428" lon="6.79988">
        <ele>1345.6</ele>
        <time>2012-06-01T09:02:16Z</time>
      </trkpt>
      <trkpt lat="43.78427" lon="6.79987">
        <ele>1344.9</ele>
        <time>2012-06-01T09:02:17Z</time>
      </trkpt>
      <trkpt lat="43.78413" lon="6.79976">
        <ele>1345.4</ele>
        <time>2012-06-01T09:02:46Z</time>
      </trkpt>
      <trkpt lat="43.78407" lon="6.79967">
        <ele>1346.2</ele>
        <time>2012-06-01T09:02:56Z</time>
      </trkpt>
      <trkpt lat="43.78399" lon="6.79962">
        <ele>1346.9</ele>
        <time>2012-06-01T09:03:11Z</time>
      </trkpt>
      <trkpt lat="43.78391" lon="6.79956">
        <ele>1348</ele>
        <time>2012-06-01T09:03:28Z</time>
      </trkpt>
      <trkpt lat="43.7839" lon="6.79956">
        <ele>1348.1</ele>
        <time>2012-06-01T09:03:29Z</time>
      </trkpt>
      <trkpt lat="43.78379" lon="6.79941">
        <ele>1352.7</ele>
        <time>2012-06-01T09:04:51Z</time>
      </trkpt>
      <trkpt lat="43.78379" lon="6.7994">
        <ele>1352.4</ele>
        <time>2012-06-01T09:04:52Z</time>
      </trkpt>
      <trkpt lat="43.78379" lon="6.79923">
        <ele>1353</ele>
        <time>2012-06-01T09:05:27Z</time>
      </trkpt>
      <trkpt lat="43.78376" lon="6.79912">
        <ele>1355.9</ele>
        <time>2012-06-01T09:05:58Z</time>
      </trkpt>
      <trkpt lat="43.78376" lon="6.79911">
        <ele>1356.2</ele>
        <time>2012-06-01T09:05:59Z</time>
      </trkpt>
      <trkpt lat="43.78359" lon="6.79908">
        <ele>1356.7</ele>
        <time>2012-06-01T09:06:30Z</time>
      </trkpt>
      <trkpt lat="43.78352" lon="6.79913">
        <ele>1359.7</ele>
        <time>2012-06-01T09:06:54Z</time>
      </trkpt>
      <trkpt lat="43.78343" lon="6.79913">
        <ele>1361.5</ele>
        <time>2012-06-01T09:07:24Z</time>
      </trkpt>
      <trkpt lat="43.78342" lon="6.79913">
        <ele>1361.8</ele>
        <time>2012-06-01T09:07:25Z</time>
      </trkpt>
      <trkpt lat="43.78328" lon="6.79906">
        <ele>1364</ele>
        <time>2012-06-01T09:07:56Z</time>
      </trkpt>
      <trkpt lat="43.78319" lon="6.79903">
        <ele>1365.9</ele>
        <time>2012-06-01T09:08:21Z</time>
      </trkpt>
      <trkpt lat="43.78311" lon="6.79899">
        <ele>1366.1</ele>
        <time>2012-06-01T09:08:32Z</time>
      </trkpt>
      <trkpt lat="43.7831" lon="6.79899">
        <ele>1366.4</ele>
        <time>2012-06-01T09:08:33Z</time>
      </trkpt>
      <trkpt lat="43.78311" lon="6.799">
        <ele>1370</ele>
        <time>2012-06-01T09:09:27Z</time>
      </trkpt>
      <trkpt lat="43.78303" lon="6.79894">
        <ele>1371.1</ele>
        <time>2012-06-01T09:09:47Z</time>
      </trkpt>
      <trkpt lat="43.78303" lon="6.79894">
        <ele>1371.1</ele>
        <time>2012-06-01T09:09:48Z</time>
      </trkpt>
      <trkpt lat="43.78287" lon="6.79893">
        <ele>1372.7</ele>
        <time>2012-06-01T09:10:05Z</time>
      </trkpt>
      <trkpt lat="43.7828" lon="6.79886">
        <ele>1373.9</ele>
        <time>2012-06-01T09:10:25Z</time>
      </trkpt>
      <trkpt lat="43.78272" lon="6.79886">
        <ele>1374.1</ele>
        <time>2012-06-01T09:10:50Z</time>
      </trkpt>
      <trkpt lat="43.78271" lon="6.79887">
        <ele>1374.2</ele>
        <time>2012-06-01T09:10:51Z</time>
      </trkpt>
      <trkpt lat="43.78262" lon="6.79887">
        <ele>1375.8</ele>
        <time>2012-06-01T09:12:20Z</time>
      </trkpt>
      <trkpt lat="43.78249" lon="6.79877">
        <ele>1380.8</ele>
        <time>2012-06-01T09:13:42Z</time>
      </trkpt>
      <trkpt lat="43.78248" lon="6.79876">
        <ele>1380.5</ele>
        <time>2012-06-01T09:13:43Z</time>
      </trkpt>
      <trkpt lat="43.78233" lon="6.79876">
        <ele>1383.8</ele>
        <time>2012-06-01T09:14:24Z</time>
      </trkpt>
      <trkpt lat="43.78224" lon="6.79877">
        <ele>1382.5</ele>
        <time>2012-06-01T09:14:34Z</time>
      </trkpt>
      <trkpt lat="43.78217" lon="6.7987">
        <ele>1385</ele>
        <time>2012-06-01T09:15:18Z</time>
      </trkpt>
      <trkpt lat="43.78217" lon="6.7987">
        <ele>1385.3</ele>
        <time>2012-06-01T09:15:19Z</time>
      </trkpt>
      <trkpt lat="43.78202" lon="6.7986">
        <ele>1388.3</ele>
        <time>2012-06-01T09:16:00Z</time>
      </trkpt>
      <trkpt lat="43.78194" lon="6.79862">
        <ele>1388.8</ele>
        <time>2012-06-01T09:16:07Z</time>
      </trkpt>
      <trkpt lat="43.78185" lon="6.79864">
        <ele>1388.8</ele>
        <time>2012-06-01T09:16:35Z</time>
      </trkpt>
      <trkpt lat="43.78184" lon="6.79863">
        <ele>1389.1</ele>
        <time>2012-06-01T09:16:36Z</time>
      </trkpt>
      <trkpt lat="43.7817" lon="6.7986">
        <ele>1394.3</ele>
        <time>2012-06-01T09:17:37Z</time>
      </trkpt>
      <trkpt lat="43.78168" lon="6.7986">
        <ele>1394.7</ele>
        <time>2012-06-01T09:17:38Z</time>
      </trkpt>
      <trkpt lat="43.78153" lon="6.79854">
        <ele>1396.4</ele>
        <time>2012-06-01T09:18:15Z</time>
      </trkpt>
      <trkpt lat="43.78152" lon="6.79866">
        <ele>1395.8</ele>
        <time>2012-06-01T09:18:47Z</time>
      </trkpt>
      <trkpt lat="43.78153" lon="6.79866">
        <ele>1396</ele>
        <time>2012-06-01T09:18:48Z</time>
      </trkpt>
      <trkpt lat="43.78153" lon="6.79861">
        <ele>1399.7</ele>
        <time>2012-06-01T09:20:43Z</time>
      </trkpt>
      <trkpt lat="43.78151" lon="6.7986">
        <ele>1400.2</ele>
        <time>2012-06-01T09:20:44Z</time>
      </trkpt>
      <trkpt lat="43.78138" lon="6.79851">
        <ele>1400.7</ele>
        <time>2012-06-01T09:21:12Z</time>
      </trkpt>
      <trkpt lat="43.7813" lon="6.7985">
        <ele>1400.7</ele>
        <time>2012-06-01T09:21:20Z</time>
      </trkpt>
      <trkpt lat="43.78123" lon="6.79858">
        <ele>1402.4</ele>
        <time>2012-06-01T09:21:33Z</time>
      </trkpt>
      <trkpt lat="43.78114" lon="6.79862">
        <ele>1404</ele>
        <time>2012-06-01T09:22:00Z</time>
      </trkpt>
      <trkpt lat="43.78114" lon="6.79861">
        <ele>1403.8</ele>
        <time>2012-06-01T09:22:01Z</time>
      </trkpt>
      <trkpt lat="43.78098" lon="6.79866">
        <ele>1409.1</ele>
        <time>2012-06-01T09:22:55Z</time>
      </trkpt>
      <trkpt lat="43.78091" lon="6.79873">
        <ele>1411.1</ele>
        <time>2012-06-01T09:23:12Z</time>
      </trkpt>
      <trkpt lat="43.7809" lon="6.79873">
        <ele>1411.2</ele>
        <time>2012-06-01T09:23:13Z</time>
      </trkpt>
      <trkpt lat="43.78074" lon="6.79877">
        <ele>1414</ele>
        <time>2012-06-01T09:23:39Z</time>
      </trkpt>
      <trkpt lat="43.78068" lon="6.79868">
        <ele>1418.5</ele>
        <time>2012-06-01T09:25:50Z</time>
      </trkpt>
      <trkpt lat="43.78068" lon="6.79868">
        <ele>1418.5</ele>
        <time>2012-06-01T09:25:51Z</time>
      </trkpt>
      <trkpt lat="43.78054" lon="6.79856">
        <ele>1422.6</ele>
        <time>2012-06-01T09:26:22Z</time>
      </trkpt>
      <trkpt lat="43.78046" lon="6.79853">
        <ele>1423.8</ele>
        <time>2012-06-01T09:26:34Z</time>
      </trkpt>
      <trkpt lat="43.78038" lon="6.79849">
        <ele>1424.8</ele>
        <time>2012-06-01T09:26:53Z</time>
      </trkpt>
      <trkpt lat="43.78037" lon="6.79849">
        <ele>1425.1</ele>
        <time>2012-06-01T09:26:54Z</time>
      </trkpt>
      <trkpt lat="43.78021" lon="6.79843">
        <ele>1428.8</ele>
        <time>2012-06-01T09:27:32Z</time>
      </trkpt>
      <trkpt lat="43.78013" lon="6.79837">
        <ele>1430.5</ele>
        <time>2012-06-01T09:27:47Z</time>
      </trkpt>
      <trkpt lat="43.78005" lon="6.79835">
        <ele>1431.3</ele>
        <time>2012-06-01T09:27:57Z</time>
      </trkpt>
      <trkpt lat="43.78004" lon="6.79835">
        <ele>1431.3</ele>
        <time>2012-06-01T09:27:58Z</time>
      </trkpt>
      <trkpt lat="43.77988" lon="6.79831">
        <ele>1432.6</ele>
        <time>2012-06-01T09:28:22Z</time>
      </trkpt>
      <trkpt lat="43.7798" lon="6.79832">
        <ele>1433.2</ele>
        <time>2012-06-01T09:28:45Z</time>
      </trkpt>
      <trkpt lat="43.77978" lon="6.7982">
        <ele>1434.8</ele>
        <time>2012-06-01T09:32:32Z</time>
      </trkpt>
      <trkpt lat="43.77978" lon="6.7982">
        <ele>1434.7</ele>
        <time>2012-06-01T09:32:33Z</time>
      </trkpt>
      <trkpt lat="43.77982" lon="6.79797">
        <ele>1434.9</ele>
        <time>2012-06-01T09:33:30Z</time>
      </trkpt>
      <trkpt lat="43.77979" lon="6.79785">
        <ele>1437.5</ele>
        <time>2012-06-01T09:33:51Z</time>
      </trkpt>
      <trkpt lat="43.77979" lon="6.79785">
        <ele>1437.4</ele>
        <time>2012-06-01T09:33:52Z</time>
      </trkpt>
      <trkpt lat="43.77972" lon="6.79764">
        <ele>1439.1</ele>
        <time>2012-06-01T09:34:45Z</time>
      </trkpt>
      <trkpt lat="43.77977" lon="6.79774">
        <ele>1439</ele>
        <time>2012-06-01T09:36:40Z</time>
      </trkpt>
      <trkpt lat="43.77977" lon="6.79774">
        <ele>1439</ele>
        <time>2012-06-01T09:36:41Z</time>
      </trkpt>
      <trkpt lat="43.77987" lon="6.79775">
        <ele>1437.8</ele>
        <time>2012-06-01T09:37:50Z</time>
      </trkpt>
      <trkpt lat="43.77993" lon="6.79754">
        <ele>1439</ele>
        <time>2012-06-01T09:38:20Z</time>
      </trkpt>
      <trkpt lat="43.77995" lon="6.79742">
        <ele>1439.6</ele>
        <time>2012-06-01T09:38:59Z</time>
      </trkpt>
      <trkpt lat="43.77995" lon="6.79741">
        <ele>1439</ele>
        <time>2012-06-01T09:39:00Z</time>
      </trkpt>
      <trkpt lat="43.77997" lon="6.79718">
        <ele>1439.1</ele>
        <time>2012-06-01T09:39:25Z</time>
      </trkpt>
      <trkpt lat="43.77999" lon="6.79707">
        <ele>1439.2</ele>
        <time>2012-06-01T09:39:38Z</time>
      </trkpt>
      <trkpt lat="43.77997" lon="6.79718">
        <ele>1438.5</ele>
        <time>2012-06-01T09:40:32Z</time>
      </trkpt>
      <trkpt lat="43.77997" lon="6.79719">
        <ele>1438</ele>
        <time>2012-06-01T09:40:33Z</time>
      </trkpt>
      <trkpt lat="43.77999" lon="6.79741">
        <ele>1438.4</ele>
        <time>2012-06-01T09:40:55Z</time>
      </trkpt>
      <trkpt lat="43.78004" lon="6.79751">
        <ele>1437.3</ele>
        <time>2012-06-01T09:41:18Z</time>
      </trkpt>
      <trkpt lat="43.78012" lon="6.79754">
        <ele>1436.3</ele>
        <time>2012-06-01T09:42:11Z</time>
      </trkpt>
      <trkpt lat="43.78013" lon="6.79754">
        <ele>1435.9</ele>
        <time>2012-06-01T09:42:12Z</time>
      </trkpt>
      <trkpt lat="43.78028" lon="6.79745">
        <ele>1436.1</ele>
        <time>2012-06-01T09:42:44Z</time>
      </trkpt>
      <trkpt lat="43.78036" lon="6.7974">
        <ele>1438.6</ele>
        <time>2012-06-01T09:43:09Z</time>
      </trkpt>
      <trkpt lat="43.78036" lon="6.79727">
        <ele>1440.4</ele>
        <time>2012-06-01T09:43:22Z</time>
      </trkpt>
      <trkpt lat="43.78036" lon="6.79727">
        <ele>1440.5</ele>
        <time>2012-06-01T09:43:23Z</time>
      </trkpt>
      <trkpt lat="43.78037" lon="6.79704">
        <ele>1440.7</ele>
        <time>2012-06-01T09:43:46Z</time>
      </trkpt>
      <trkpt lat="43.78037" lon="6.79692">
        <ele>1441.3</ele>
        <time>2012-06-01T09:43:58Z</time>
      </trkpt>
      <trkpt lat="43.78039" lon="6.7968">
        <ele>1441.2</ele>
        <time>2012-06-01T09:44:17Z</time>
      </trkpt>
      <trkpt lat="43.78044" lon="6.7967">
        <ele>1441.8</ele>
        <time>2012-06-01T09:44:34Z</time>
      </trkpt>
      <trkpt lat="43.78044" lon="6.7967">
        <ele>1442</ele>
        <time>2012-06-01T09:44:35Z</time>
      </trkpt>
      <trkpt lat="43.78053" lon="6.7965">
        <ele>1440.5</ele>
        <time>2012-06-01T09:45:07Z</time>
      </trkpt>
      <trkpt lat="43.78046" lon="6.79642">
        <ele>1443.3</ele>
        <time>2012-06-01T09:45:22Z</time>
      </trkpt>
      <trkpt lat="43.7804" lon="6.79634">
        <ele>1443.6</ele>
        <time>2012-06-01T09:45:40Z</time>
      </trkpt>
      <trkpt lat="43.78039" lon="6.79633">
        <ele>1443.3</ele>
        <time>2012-06-01T09:45:42Z</time>
      </trkpt>
      <trkpt lat="43.78035" lon="6.7961">
        <ele>1446</ele>
        <time>2012-06-01T09:47:23Z</time>
      </trkpt>
      <trkpt lat="43.78035" lon="6.7961">
        <ele>1446.5</ele>
        <time>2012-06-01T09:47:24Z</time>
      </trkpt>
      <trkpt lat="43.78041" lon="6.79589">
        <ele>1446.5</ele>
        <time>2012-06-01T09:48:31Z</time>
      </trkpt>
      <trkpt lat="43.78041" lon="6.79588">
        <ele>1446.5</ele>
        <time>2012-06-01T09:48:32Z</time>
      </trkpt>
      <trkpt lat="43.78035" lon="6.79569">
        <ele>1445.3</ele>
        <time>2012-06-01T09:48:52Z</time>
      </trkpt>
      <trkpt lat="43.78031" lon="6.79558">
        <ele>1443.9</ele>
        <time>2012-06-01T09:49:01Z</time>
      </trkpt>
      <trkpt lat="43.78032" lon="6.79546">
        <ele>1443.9</ele>
        <time>2012-06-01T09:49:09Z</time>
      </trkpt>
      <trkpt lat="43.78036" lon="6.79535">
        <ele>1444.7</ele>
        <time>2012-06-01T09:49:18Z</time>
      </trkpt>
      <trkpt lat="43.78044" lon="6.79532">
        <ele>1445.4</ele>
        <time>2012-06-01T09:49:33Z</time>
      </trkpt>
      <trkpt lat="43.78045" lon="6.79532">
        <ele>1445</ele>
        <time>2012-06-01T09:49:34Z</time>
      </trkpt>
      <trkpt lat="43.78057" lon="6.79536">
        <ele>1442.7</ele>
        <time>2012-06-01T09:50:25Z</time>
      </trkpt>
      <trkpt lat="43.78048" lon="6.79533">
        <ele>1444.6</ele>
        <time>2012-06-01T09:51:15Z</time>
      </trkpt>
      <trkpt lat="43.78048" lon="6.79533">
        <ele>1444.7</ele>
        <time>2012-06-01T09:51:16Z</time>
      </trkpt>
      <trkpt lat="43.78036" lon="6.7952">
        <ele>1445.7</ele>
        <time>2012-06-01T09:52:00Z</time>
      </trkpt>
      <trkpt lat="43.7804" lon="6.79509">
        <ele>1446.6</ele>
        <time>2012-06-01T09:52:10Z</time>
      </trkpt>
      <trkpt lat="43.78044" lon="6.79499">
        <ele>1446.4</ele>
        <time>2012-06-01T09:52:21Z</time>
      </trkpt>
      <trkpt lat="43.78045" lon="6.79498">
        <ele>1446.1</ele>
        <time>2012-06-01T09:52:22Z</time>
      </trkpt>
      <trkpt lat="43.78059" lon="6.79487">
        <ele>1448</ele>
        <time>2012-06-01T09:52:43Z</time>
      </trkpt>
      <trkpt lat="43.78063" lon="6.79477">
        <ele>1447.9</ele>
        <time>2012-06-01T09:52:54Z</time>
      </trkpt>
      <trkpt lat="43.78068" lon="6.79467">
        <ele>1448.4</ele>
        <time>2012-06-01T09:53:05Z</time>
      </trkpt>
      <trkpt lat="43.78073" lon="6.79458">
        <ele>1449.4</ele>
        <time>2012-06-01T09:53:14Z</time>
      </trkpt>
      <trkpt lat="43.78072" lon="6.79447">
        <ele>1448.6</ele>
        <time>2012-06-01T09:53:24Z</time>
      </trkpt>
      <trkpt lat="43.78071" lon="6.79446">
        <ele>1449.1</ele>
        <time>2012-06-01T09:53:25Z</time>
      </trkpt>
      <trkpt lat="43.78073" lon="6.79426">
        <ele>1450.3</ele>
        <time>2012-06-01T09:53:51Z</time>
      </trkpt>
      <trkpt lat="43.78079" lon="6.79417">
        <ele>1451.6</ele>
        <time>2012-06-01T09:54:47Z</time>
      </trkpt>
      <trkpt lat="43.7808" lon="6.79417">
        <ele>1451.7</ele>
        <time>2012-06-01T09:54:48Z</time>
      </trkpt>
      <trkpt lat="43.7807" lon="6.79417">
        <ele>1450.4</ele>
        <time>2012-06-01T09:56:16Z</time>
      </trkpt>
      <trkpt lat="43.78071" lon="6.79423">
        <ele>1450.5</ele>
        <time>2012-06-01T09:58:19Z</time>
      </trkpt>
      <trkpt lat="43.7807" lon="6.79423">
        <ele>1450.6</ele>
        <time>2012-06-01T09:58:20Z</time>
      </trkpt>
      <trkpt lat="43.78075" lon="6.79412">
        <ele>1452.4</ele>
        <time>2012-06-01T09:59:27Z</time>
      </trkpt>
      <trkpt lat="43.78073" lon="6.79389">
        <ele>1456.1</ele>
        <time>2012-06-01T10:00:25Z</time>
      </trkpt>
      <trkpt lat="43.78072" lon="6.79377">
        <ele>1457.4</ele>
        <time>2012-06-01T10:00:38Z</time>
      </trkpt>
      <trkpt lat="43.78072" lon="6.79376">
        <ele>1457.4</ele>
        <time>2012-06-01T10:00:39Z</time>
      </trkpt>
      <trkpt lat="43.78075" lon="6.79355">
        <ele>1460</ele>
        <time>2012-06-01T10:02:18Z</time>
      </trkpt>
      <trkpt lat="43.78076" lon="6.79354">
        <ele>1460.1</ele>
        <time>2012-06-01T10:02:19Z</time>
      </trkpt>
      <trkpt lat="43.78085" lon="6.79335">
        <ele>1460.3</ele>
        <time>2012-06-01T10:02:52Z</time>
      </trkpt>
      <trkpt lat="43.78089" lon="6.79324">
        <ele>1460.6</ele>
        <time>2012-06-01T10:03:08Z</time>
      </trkpt>
      <trkpt lat="43.78092" lon="6.79313">
        <ele>1460.7</ele>
        <time>2012-06-01T10:03:22Z</time>
      </trkpt>
      <trkpt lat="43.78093" lon="6.79312">
        <ele>1460.4</ele>
        <time>2012-06-01T10:03:23Z</time>
      </trkpt>
      <trkpt lat="43.78088" lon="6.79291">
        <ele>1462.4</ele>
        <time>2012-06-01T10:03:59Z</time>
      </trkpt>
      <trkpt lat="43.78082" lon="6.79282">
        <ele>1463.5</ele>
        <time>2012-06-01T10:04:15Z</time>
      </trkpt>
      <trkpt lat="43.78082" lon="6.7927">
        <ele>1464.7</ele>
        <time>2012-06-01T10:04:33Z</time>
      </trkpt>
      <trkpt lat="43.78082" lon="6.79269">
        <ele>1464.6</ele>
        <time>2012-06-01T10:04:34Z</time>
      </trkpt>
      <trkpt lat="43.78086" lon="6.79248">
        <ele>1467.1</ele>
        <time>2012-06-01T10:05:03Z</time>
      </trkpt>
      <trkpt lat="43.78088" lon="6.79236">
        <ele>1466.2</ele>
        <time>2012-06-01T10:05:17Z</time>
      </trkpt>
      <trkpt lat="43.78086" lon="6.79224">
        <ele>1467</ele>
        <time>2012-06-01T10:05:45Z</time>
      </trkpt>
      <trkpt lat="43.78085" lon="6.79224">
        <ele>1466.8</ele>
        <time>2012-06-01T10:05:46Z</time>
      </trkpt>
      <trkpt lat="43.78087" lon="6.79201">
        <ele>1463.8</ele>
        <time>2012-06-01T10:06:40Z</time>
      </trkpt>
      <trkpt lat="43.78093" lon="6.79193">
        <ele>1463.8</ele>
        <time>2012-06-01T10:06:51Z</time>
      </trkpt>
      <trkpt lat="43.78093" lon="6.79191">
        <ele>1464.4</ele>
        <time>2012-06-01T10:06:52Z</time>
      </trkpt>
      <trkpt lat="43.781" lon="6.79172">
        <ele>1462.4</ele>
        <time>2012-06-01T10:07:17Z</time>
      </trkpt>
      <trkpt lat="43.78108" lon="6.79167">
        <ele>1461.1</ele>
        <time>2012-06-01T10:07:29Z</time>
      </trkpt>
      <trkpt lat="43.78117" lon="6.79168">
        <ele>1460.3</ele>
        <time>2012-06-01T10:07:43Z</time>
      </trkpt>
      <trkpt lat="43.78125" lon="6.79165">
        <ele>1459.7</ele>
        <time>2012-06-01T10:07:53Z</time>
      </trkpt>
      <trkpt lat="43.78126" lon="6.79164">
        <ele>1459.6</ele>
        <time>2012-06-01T10:07:54Z</time>
      </trkpt>
      <trkpt lat="43.78139" lon="6.79162">
        <ele>1459.5</ele>
        <time>2012-06-01T10:09:15Z</time>
      </trkpt>
      <trkpt lat="43.7814" lon="6.79162">
        <ele>1459.1</ele>
        <time>2012-06-01T10:09:16Z</time>
      </trkpt>
      <trkpt lat="43.78148" lon="6.79158">
        <ele>1459.3</ele>
        <time>2012-06-01T10:10:43Z</time>
      </trkpt>
      <trkpt lat="43.78164" lon="6.79167">
        <ele>1459</ele>
        <time>2012-06-01T10:13:11Z</time>
      </trkpt>
      <trkpt lat="43.78164" lon="6.79167">
        <ele>1459.3</ele>
        <time>2012-06-01T10:13:12Z</time>
      </trkpt>
      <trkpt lat="43.7818" lon="6.7916">
        <ele>1462.3</ele>
        <time>2012-06-01T10:14:21Z</time>
      </trkpt>
      <trkpt lat="43.7818" lon="6.79159">
        <ele>1462.5</ele>
        <time>2012-06-01T10:14:22Z</time>
      </trkpt>
      <trkpt lat="43.7819" lon="6.79144">
        <ele>1466.2</ele>
        <time>2012-06-01T10:15:14Z</time>
      </trkpt>
      <trkpt lat="43.78187" lon="6.79133">
        <ele>1467.6</ele>
        <time>2012-06-01T10:15:52Z</time>
      </trkpt>
      <trkpt lat="43.78187" lon="6.79133">
        <ele>1467.6</ele>
        <time>2012-06-01T10:15:53Z</time>
      </trkpt>
      <trkpt lat="43.78193" lon="6.79123">
        <ele>1473.9</ele>
        <time>2012-06-01T10:17:47Z</time>
      </trkpt>
      <trkpt lat="43.78194" lon="6.79101">
        <ele>1481.2</ele>
        <time>2012-06-01T10:19:38Z</time>
      </trkpt>
      <trkpt lat="43.78194" lon="6.791">
        <ele>1481.7</ele>
        <time>2012-06-01T10:19:39Z</time>
      </trkpt>
      <trkpt lat="43.78212" lon="6.79101">
        <ele>1485.7</ele>
        <time>2012-06-01T10:21:06Z</time>
      </trkpt>
      <trkpt lat="43.78212" lon="6.79101">
        <ele>1485.8</ele>
        <time>2012-06-01T10:21:07Z</time>
      </trkpt>
      <trkpt lat="43.78226" lon="6.79087">
        <ele>1490.2</ele>
        <time>2012-06-01T10:24:58Z</time>
      </trkpt>
      <trkpt lat="43.78226" lon="6.79086">
        <ele>1490.5</ele>
        <time>2012-06-01T10:24:59Z</time>
      </trkpt>
      <trkpt lat="43.78227" lon="6.79074">
        <ele>1485.9</ele>
        <time>2012-06-01T10:26:27Z</time>
      </trkpt>
      <trkpt lat="43.78221" lon="6.79053">
        <ele>1485.1</ele>
        <time>2012-06-01T10:26:49Z</time>
      </trkpt>
      <trkpt lat="43.78219" lon="6.79041">
        <ele>1484.6</ele>
        <time>2012-06-01T10:26:59Z</time>
      </trkpt>
      <trkpt lat="43.78221" lon="6.7903">
        <ele>1486.3</ele>
        <time>2012-06-01T10:27:35Z</time>
      </trkpt>
      <trkpt lat="43.78222" lon="6.79029">
        <ele>1485.8</ele>
        <time>2012-06-01T10:27:36Z</time>
      </trkpt>
      <trkpt lat="43.7822" lon="6.79007">
        <ele>1487.2</ele>
        <time>2012-06-01T10:28:35Z</time>
      </trkpt>
      <trkpt lat="43.78217" lon="6.78995">
        <ele>1488.8</ele>
        <time>2012-06-01T10:29:41Z</time>
      </trkpt>
      <trkpt lat="43.78217" lon="6.78995">
        <ele>1488.6</ele>
        <time>2012-06-01T10:29:42Z</time>
      </trkpt>
      <trkpt lat="43.78211" lon="6.78987">
        <ele>1488.9</ele>
        <time>2012-06-01T10:31:30Z</time>
      </trkpt>
      <trkpt lat="43.78208" lon="6.78963">
        <ele>1491.8</ele>
        <time>2012-06-01T10:31:59Z</time>
      </trkpt>
      <trkpt lat="43.78204" lon="6.78953">
        <ele>1492.8</ele>
        <time>2012-06-01T10:32:10Z</time>
      </trkpt>
      <trkpt lat="43.782" lon="6.78942">
        <ele>1494.1</ele>
        <time>2012-06-01T10:32:24Z</time>
      </trkpt>
      <trkpt lat="43.782" lon="6.7893">
        <ele>1494.9</ele>
        <time>2012-06-01T10:32:48Z</time>
      </trkpt>
      <trkpt lat="43.782" lon="6.78929">
        <ele>1494.8</ele>
        <time>2012-06-01T10:32:49Z</time>
      </trkpt>
      <trkpt lat="43.78198" lon="6.78911">
        <ele>1496.9</ele>
        <time>2012-06-01T10:33:36Z</time>
      </trkpt>
      <trkpt lat="43.78198" lon="6.78899">
        <ele>1497.4</ele>
        <time>2012-06-01T10:33:59Z</time>
      </trkpt>
      <trkpt lat="43.78198" lon="6.78898">
        <ele>1497.3</ele>
        <time>2012-06-01T10:34:00Z</time>
      </trkpt>
      <trkpt lat="43.78199" lon="6.78898">
        <ele>1498.5</ele>
        <time>2012-06-01T10:35:13Z</time>
      </trkpt>
      <trkpt lat="43.782" lon="6.789">
        <ele>1498.6</ele>
        <time>2012-06-01T10:35:14Z</time>
      </trkpt>
      <trkpt lat="43.78205" lon="6.78922">
        <ele>1497.2</ele>
        <time>2012-06-01T10:36:37Z</time>
      </trkpt>
      <trkpt lat="43.78206" lon="6.78922">
        <ele>1497.3</ele>
        <time>2012-06-01T10:36:38Z</time>
      </trkpt>
      <trkpt lat="43.78207" lon="6.78909">
        <ele>1495.8</ele>
        <time>2012-06-01T10:39:15Z</time>
      </trkpt>
      <trkpt lat="43.78215" lon="6.78915">
        <ele>1496.6</ele>
        <time>2012-06-01T10:40:31Z</time>
      </trkpt>
      <trkpt lat="43.782" lon="6.78927">
        <ele>1496.3</ele>
        <time>2012-06-01T10:41:31Z</time>
      </trkpt>
      <trkpt lat="43.78198" lon="6.78927">
        <ele>1496.7</ele>
        <time>2012-06-01T10:41:32Z</time>
      </trkpt>
      <trkpt lat="43.78192" lon="6.78933">
        <ele>1497.2</ele>
        <time>2012-06-01T10:43:04Z</time>
      </trkpt>
      <trkpt lat="43.78203" lon="6.78916">
        <ele>1497</ele>
        <time>2012-06-01T10:43:24Z</time>
      </trkpt>
      <trkpt lat="43.78211" lon="6.7891">
        <ele>1497.5</ele>
        <time>2012-06-01T10:45:13Z</time>
      </trkpt>
      <trkpt lat="43.78212" lon="6.7891">
        <ele>1498</ele>
        <time>2012-06-01T10:45:14Z</time>
      </trkpt>
      <trkpt lat="43.78213" lon="6.78915">
        <ele>1496.7</ele>
        <time>2012-06-01T10:46:38Z</time>
      </trkpt>
      <trkpt lat="43.78214" lon="6.78914">
        <ele>1496.7</ele>
        <time>2012-06-01T10:46:39Z</time>
      </trkpt>
      <trkpt lat="43.78212" lon="6.78913">
        <ele>1496.4</ele>
        <time>2012-06-01T10:47:13Z</time>
      </trkpt>
      <trkpt lat="43.7822" lon="6.78916">
        <ele>1496.7</ele>
        <time>2012-06-01T10:47:33Z</time>
      </trkpt>
      <trkpt lat="43.78228" lon="6.78917">
        <ele>1496.3</ele>
        <time>2012-06-01T10:47:44Z</time>
      </trkpt>
      <trkpt lat="43.78229" lon="6.78917">
        <ele>1496.4</ele>
        <time>2012-06-01T10:47:45Z</time>
      </trkpt>
      <trkpt lat="43.78213" lon="6.78915">
        <ele>1497.2</ele>
        <time>2012-06-01T10:48:24Z</time>
      </trkpt>
      <trkpt lat="43.78206" lon="6.78907">
        <ele>1496.8</ele>
        <time>2012-06-01T10:49:53Z</time>
      </trkpt>
      <trkpt lat="43.78205" lon="6.78907">
        <ele>1496.8</ele>
        <time>2012-06-01T10:49:54Z</time>
      </trkpt>
      <trkpt lat="43.78218" lon="6.78908">
        <ele>1497.7</ele>
        <time>2012-06-01T10:53:31Z</time>
      </trkpt>
      <trkpt lat="43.78219" lon="6.78908">
        <ele>1497.6</ele>
        <time>2012-06-01T10:53:32Z</time>
      </trkpt>
      <trkpt lat="43.78205" lon="6.78917">
        <ele>1496.7</ele>
        <time>2012-06-01T10:54:47Z</time>
      </trkpt>
      <trkpt lat="43.78204" lon="6.78917">
        <ele>1496.7</ele>
        <time>2012-06-01T10:54:48Z</time>
      </trkpt>
      <trkpt lat="43.78204" lon="6.78907">
        <ele>1496.6</ele>
        <time>2012-06-01T10:58:15Z</time>
      </trkpt>
      <trkpt lat="43.78204" lon="6.78907">
        <ele>1497.1</ele>
        <time>2012-06-01T10:58:16Z</time>
      </trkpt>
      <trkpt lat="43.78214" lon="6.78908">
        <ele>1498.9</ele>
        <time>2012-06-01T11:15:11Z</time>
      </trkpt>
      <trkpt lat="43.78204" lon="6.78908">
        <ele>1499.4</ele>
        <time>2012-06-01T11:18:11Z</time>
      </trkpt>
      <trkpt lat="43.78207" lon="6.78919">
        <ele>1498.9</ele>
        <time>2012-06-01T11:20:12Z</time>
      </trkpt>
      <trkpt lat="43.78203" lon="6.78907">
        <ele>1499.2</ele>
        <time>2012-06-01T11:30:17Z</time>
      </trkpt>
      <trkpt lat="43.78197" lon="6.78915">
        <ele>1498.8</ele>
        <time>2012-06-01T11:33:54Z</time>
      </trkpt>
      <trkpt lat="43.78193" lon="6.78936">
        <ele>1496.2</ele>
        <time>2012-06-01T11:35:03Z</time>
      </trkpt>
      <trkpt lat="43.78193" lon="6.78937">
        <ele>1495.8</ele>
        <time>2012-06-01T11:35:04Z</time>
      </trkpt>
      <trkpt lat="43.782" lon="6.78958">
        <ele>1493</ele>
        <time>2012-06-01T11:35:40Z</time>
      </trkpt>
      <trkpt lat="43.78201" lon="6.7897">
        <ele>1491.6</ele>
        <time>2012-06-01T11:35:58Z</time>
      </trkpt>
      <trkpt lat="43.78204" lon="6.78982">
        <ele>1490.6</ele>
        <time>2012-06-01T11:36:39Z</time>
      </trkpt>
      <trkpt lat="43.78204" lon="6.78982">
        <ele>1490.6</ele>
        <time>2012-06-01T11:36:40Z</time>
      </trkpt>
      <trkpt lat="43.78209" lon="6.79005">
        <ele>1488.2</ele>
        <time>2012-06-01T11:37:24Z</time>
      </trkpt>
      <trkpt lat="43.78211" lon="6.79017">
        <ele>1488.6</ele>
        <time>2012-06-01T11:37:40Z</time>
      </trkpt>
      <trkpt lat="43.78211" lon="6.79017">
        <ele>1488.7</ele>
        <time>2012-06-01T11:37:41Z</time>
      </trkpt>
      <trkpt lat="43.78211" lon="6.7904">
        <ele>1485.6</ele>
        <time>2012-06-01T11:38:30Z</time>
      </trkpt>
      <trkpt lat="43.78213" lon="6.79051">
        <ele>1485.1</ele>
        <time>2012-06-01T11:38:40Z</time>
      </trkpt>
      <trkpt lat="43.7822" lon="6.79059">
        <ele>1486.2</ele>
        <time>2012-06-01T11:38:50Z</time>
      </trkpt>
      <trkpt lat="43.7822" lon="6.7906">
        <ele>1486.3</ele>
        <time>2012-06-01T11:38:51Z</time>
      </trkpt>
      <trkpt lat="43.78233" lon="6.79074">
        <ele>1487.7</ele>
        <time>2012-06-01T11:39:17Z</time>
      </trkpt>
      <trkpt lat="43.78242" lon="6.79075">
        <ele>1489</ele>
        <time>2012-06-01T11:39:37Z</time>
      </trkpt>
      <trkpt lat="43.78248" lon="6.79083">
        <ele>1485.3</ele>
        <time>2012-06-01T11:40:04Z</time>
      </trkpt>
      <trkpt lat="43.78249" lon="6.79084">
        <ele>1485.3</ele>
        <time>2012-06-01T11:40:05Z</time>
      </trkpt>
      <trkpt lat="43.78265" lon="6.79089">
        <ele>1484.7</ele>
        <time>2012-06-01T11:41:07Z</time>
      </trkpt>
      <trkpt lat="43.78266" lon="6.7909">
        <ele>1484.8</ele>
        <time>2012-06-01T11:41:08Z</time>
      </trkpt>
      <trkpt lat="43.78276" lon="6.79108">
        <ele>1489.4</ele>
        <time>2012-06-01T11:41:44Z</time>
      </trkpt>
      <trkpt lat="43.7828" lon="6.79118">
        <ele>1491.3</ele>
        <time>2012-06-01T11:41:56Z</time>
      </trkpt>
      <trkpt lat="43.78283" lon="6.79129">
        <ele>1490.8</ele>
        <time>2012-06-01T11:42:07Z</time>
      </trkpt>
      <trkpt lat="43.78289" lon="6.79138">
        <ele>1489.9</ele>
        <time>2012-06-01T11:42:21Z</time>
      </trkpt>
      <trkpt lat="43.78289" lon="6.79139">
        <ele>1489.9</ele>
        <time>2012-06-01T11:42:22Z</time>
      </trkpt>
      <trkpt lat="43.78286" lon="6.79162">
        <ele>1487.2</ele>
        <time>2012-06-01T11:43:11Z</time>
      </trkpt>
      <trkpt lat="43.78288" lon="6.79173">
        <ele>1484.9</ele>
        <time>2012-06-01T11:43:50Z</time>
      </trkpt>
      <trkpt lat="43.78288" lon="6.79174">
        <ele>1484.9</ele>
        <time>2012-06-01T11:43:51Z</time>
      </trkpt>
      <trkpt lat="43.78301" lon="6.79187">
        <ele>1479.9</ele>
        <time>2012-06-01T11:44:39Z</time>
      </trkpt>
      <trkpt lat="43.78309" lon="6.79193">
        <ele>1477.7</ele>
        <time>2012-06-01T11:44:59Z</time>
      </trkpt>
      <trkpt lat="43.78309" lon="6.79193">
        <ele>1477.1</ele>
        <time>2012-06-01T11:45:00Z</time>
      </trkpt>
      <trkpt lat="43.7832" lon="6.7921">
        <ele>1471.4</ele>
        <time>2012-06-01T11:45:48Z</time>
      </trkpt>
      <trkpt lat="43.78324" lon="6.7922">
        <ele>1469.6</ele>
        <time>2012-06-01T11:46:14Z</time>
      </trkpt>
      <trkpt lat="43.78325" lon="6.79221">
        <ele>1468.8</ele>
        <time>2012-06-01T11:46:15Z</time>
      </trkpt>
      <trkpt lat="43.7832" lon="6.79244">
        <ele>1464.2</ele>
        <time>2012-06-01T11:47:37Z</time>
      </trkpt>
      <trkpt lat="43.7832" lon="6.79244">
        <ele>1464.7</ele>
        <time>2012-06-01T11:47:38Z</time>
      </trkpt>
      <trkpt lat="43.78303" lon="6.79236">
        <ele>1467.5</ele>
        <time>2012-06-01T11:49:04Z</time>
      </trkpt>
      <trkpt lat="43.78303" lon="6.79236">
        <ele>1467.7</ele>
        <time>2012-06-01T11:49:05Z</time>
      </trkpt>
      <trkpt lat="43.78288" lon="6.79225">
        <ele>1472.7</ele>
        <time>2012-06-01T11:50:12Z</time>
      </trkpt>
      <trkpt lat="43.78287" lon="6.79224">
        <ele>1472.2</ele>
        <time>2012-06-01T11:50:13Z</time>
      </trkpt>
      <trkpt lat="43.78272" lon="6.79213">
        <ele>1472.9</ele>
        <time>2012-06-01T11:50:49Z</time>
      </trkpt>
      <trkpt lat="43.78264" lon="6.79208">
        <ele>1470.7</ele>
        <time>2012-06-01T11:51:17Z</time>
      </trkpt>
      <trkpt lat="43.78264" lon="6.79208">
        <ele>1470.9</ele>
        <time>2012-06-01T11:51:18Z</time>
      </trkpt>
      <trkpt lat="43.78248" lon="6.79211">
        <ele>1467.2</ele>
        <time>2012-06-01T11:52:48Z</time>
      </trkpt>
      <trkpt lat="43.78247" lon="6.79211">
        <ele>1467.3</ele>
        <time>2012-06-01T11:52:49Z</time>
      </trkpt>
      <trkpt lat="43.78232" lon="6.79221">
        <ele>1462.5</ele>
        <time>2012-06-01T11:53:42Z</time>
      </trkpt>
      <trkpt lat="43.78223" lon="6.79224">
        <ele>1460.8</ele>
        <time>2012-06-01T11:53:57Z</time>
      </trkpt>
      <trkpt lat="43.78223" lon="6.79224">
        <ele>1460.8</ele>
        <time>2012-06-01T11:53:58Z</time>
      </trkpt>
      <trkpt lat="43.78206" lon="6.79225">
        <ele>1462.1</ele>
        <time>2012-06-01T11:54:25Z</time>
      </trkpt>
      <trkpt lat="43.78197" lon="6.79224">
        <ele>1461</ele>
        <time>2012-06-01T11:54:39Z</time>
      </trkpt>
      <trkpt lat="43.78189" lon="6.79221">
        <ele>1460.6</ele>
        <time>2012-06-01T11:54:52Z</time>
      </trkpt>
      <trkpt lat="43.7818" lon="6.79224">
        <ele>1460.7</ele>
        <time>2012-06-01T11:55:06Z</time>
      </trkpt>
      <trkpt lat="43.78179" lon="6.79224">
        <ele>1460.3</ele>
        <time>2012-06-01T11:55:07Z</time>
      </trkpt>
      <trkpt lat="43.78174" lon="6.79247">
        <ele>1458.5</ele>
        <time>2012-06-01T11:56:11Z</time>
      </trkpt>
      <trkpt lat="43.78174" lon="6.79247">
        <ele>1457.9</ele>
        <time>2012-06-01T11:56:12Z</time>
      </trkpt>
      <trkpt lat="43.78157" lon="6.79249">
        <ele>1461.2</ele>
        <time>2012-06-01T11:56:42Z</time>
      </trkpt>
      <trkpt lat="43.78149" lon="6.79254">
        <ele>1462.3</ele>
        <time>2012-06-01T11:57:00Z</time>
      </trkpt>
      <trkpt lat="43.78143" lon="6.79264">
        <ele>1463.1</ele>
        <time>2012-06-01T11:57:11Z</time>
      </trkpt>
      <trkpt lat="43.78137" lon="6.79271">
        <ele>1463.4</ele>
        <time>2012-06-01T11:57:23Z</time>
      </trkpt>
      <trkpt lat="43.78136" lon="6.79272">
        <ele>1464</ele>
        <time>2012-06-01T11:57:24Z</time>
      </trkpt>
      <trkpt lat="43.78125" lon="6.79289">
        <ele>1467.2</ele>
        <time>2012-06-01T11:58:03Z</time>
      </trkpt>
      <trkpt lat="43.78121" lon="6.793">
        <ele>1467.6</ele>
        <time>2012-06-01T11:58:32Z</time>
      </trkpt>
      <trkpt lat="43.78121" lon="6.793">
        <ele>1467.5</ele>
        <time>2012-06-01T11:58:33Z</time>
      </trkpt>
      <trkpt lat="43.78112" lon="6.7932">
        <ele>1466.4</ele>
        <time>2012-06-01T11:58:57Z</time>
      </trkpt>
      <trkpt lat="43.78108" lon="6.7933">
        <ele>1466.6</ele>
        <time>2012-06-01T11:59:11Z</time>
      </trkpt>
      <trkpt lat="43.78103" lon="6.7934">
        <ele>1465.9</ele>
        <time>2012-06-01T11:59:22Z</time>
      </trkpt>
      <trkpt lat="43.78098" lon="6.79349">
        <ele>1464.6</ele>
        <time>2012-06-01T11:59:31Z</time>
      </trkpt>
      <trkpt lat="43.78093" lon="6.79358">
        <ele>1464.1</ele>
        <time>2012-06-01T11:59:42Z</time>
      </trkpt>
      <trkpt lat="43.78092" lon="6.79359">
        <ele>1464.1</ele>
        <time>2012-06-01T11:59:43Z</time>
      </trkpt>
      <trkpt lat="43.78084" lon="6.79378">
        <ele>1464.9</ele>
        <time>2012-06-01T12:00:09Z</time>
      </trkpt>
      <trkpt lat="43.78084" lon="6.7939">
        <ele>1464.5</ele>
        <time>2012-06-01T12:00:19Z</time>
      </trkpt>
      <trkpt lat="43.78085" lon="6.79401">
        <ele>1463.5</ele>
        <time>2012-06-01T12:00:29Z</time>
      </trkpt>
      <trkpt lat="43.78083" lon="6.79413">
        <ele>1463.5</ele>
        <time>2012-06-01T12:00:38Z</time>
      </trkpt>
      <trkpt lat="43.78083" lon="6.79425">
        <ele>1463.2</ele>
        <time>2012-06-01T12:00:48Z</time>
      </trkpt>
      <trkpt lat="43.78083" lon="6.79426">
        <ele>1463.5</ele>
        <time>2012-06-01T12:00:49Z</time>
      </trkpt>
      <trkpt lat="43.78075" lon="6.79445">
        <ele>1462.6</ele>
        <time>2012-06-01T12:01:19Z</time>
      </trkpt>
      <trkpt lat="43.78068" lon="6.79453">
        <ele>1461.8</ele>
        <time>2012-06-01T12:01:31Z</time>
      </trkpt>
      <trkpt lat="43.78063" lon="6.79462">
        <ele>1461.3</ele>
        <time>2012-06-01T12:01:44Z</time>
      </trkpt>
      <trkpt lat="43.78058" lon="6.79471">
        <ele>1460.3</ele>
        <time>2012-06-01T12:01:56Z</time>
      </trkpt>
      <trkpt lat="43.78057" lon="6.79472">
        <ele>1460.3</ele>
        <time>2012-06-01T12:01:57Z</time>
      </trkpt>
      <trkpt lat="43.78049" lon="6.7949">
        <ele>1458.5</ele>
        <time>2012-06-01T12:02:24Z</time>
      </trkpt>
      <trkpt lat="43.78042" lon="6.79498">
        <ele>1456.6</ele>
        <time>2012-06-01T12:02:36Z</time>
      </trkpt>
      <trkpt lat="43.78039" lon="6.79509">
        <ele>1456.4</ele>
        <time>2012-06-01T12:02:46Z</time>
      </trkpt>
      <trkpt lat="43.78035" lon="6.79519">
        <ele>1458.4</ele>
        <time>2012-06-01T12:02:56Z</time>
      </trkpt>
      <trkpt lat="43.78031" lon="6.79529">
        <ele>1457</ele>
        <time>2012-06-01T12:03:06Z</time>
      </trkpt>
      <trkpt lat="43.7803" lon="6.7953">
        <ele>1457.2</ele>
        <time>2012-06-01T12:03:07Z</time>
      </trkpt>
      <trkpt lat="43.78027" lon="6.79552">
        <ele>1454.8</ele>
        <time>2012-06-01T12:03:29Z</time>
      </trkpt>
      <trkpt lat="43.78028" lon="6.79565">
        <ele>1454.9</ele>
        <time>2012-06-01T12:03:40Z</time>
      </trkpt>
      <trkpt lat="43.78032" lon="6.79575">
        <ele>1455.8</ele>
        <time>2012-06-01T12:03:53Z</time>
      </trkpt>
      <trkpt lat="43.78038" lon="6.79583">
        <ele>1457.1</ele>
        <time>2012-06-01T12:04:07Z</time>
      </trkpt>
      <trkpt lat="43.78038" lon="6.79584">
        <ele>1457.3</ele>
        <time>2012-06-01T12:04:08Z</time>
      </trkpt>
      <trkpt lat="43.78045" lon="6.79604">
        <ele>1456.7</ele>
        <time>2012-06-01T12:04:33Z</time>
      </trkpt>
      <trkpt lat="43.78046" lon="6.79616">
        <ele>1455.1</ele>
        <time>2012-06-01T12:04:46Z</time>
      </trkpt>
      <trkpt lat="43.78042" lon="6.79627">
        <ele>1454.2</ele>
        <time>2012-06-01T12:05:01Z</time>
      </trkpt>
      <trkpt lat="43.78038" lon="6.79637">
        <ele>1454.6</ele>
        <time>2012-06-01T12:05:15Z</time>
      </trkpt>
      <trkpt lat="43.78037" lon="6.79638">
        <ele>1454.4</ele>
        <time>2012-06-01T12:05:16Z</time>
      </trkpt>
      <trkpt lat="43.78029" lon="6.79657">
        <ele>1453.6</ele>
        <time>2012-06-01T12:06:04Z</time>
      </trkpt>
      <trkpt lat="43.78025" lon="6.79668">
        <ele>1454.6</ele>
        <time>2012-06-01T12:07:01Z</time>
      </trkpt>
      <trkpt lat="43.78025" lon="6.79668">
        <ele>1454.6</ele>
        <time>2012-06-01T12:07:02Z</time>
      </trkpt>
      <trkpt lat="43.78031" lon="6.79688">
        <ele>1453.7</ele>
        <time>2012-06-01T12:07:50Z</time>
      </trkpt>
      <trkpt lat="43.78032" lon="6.79699">
        <ele>1451.5</ele>
        <time>2012-06-01T12:08:02Z</time>
      </trkpt>
      <trkpt lat="43.78032" lon="6.797">
        <ele>1451.6</ele>
        <time>2012-06-01T12:08:03Z</time>
      </trkpt>
      <trkpt lat="43.78033" lon="6.79723">
        <ele>1451.7</ele>
        <time>2012-06-01T12:08:25Z</time>
      </trkpt>
      <trkpt lat="43.78037" lon="6.79734">
        <ele>1450</ele>
        <time>2012-06-01T12:08:36Z</time>
      </trkpt>
      <trkpt lat="43.78042" lon="6.79744">
        <ele>1448.8</ele>
        <time>2012-06-01T12:08:49Z</time>
      </trkpt>
      <trkpt lat="43.78047" lon="6.79754">
        <ele>1449</ele>
        <time>2012-06-01T12:09:04Z</time>
      </trkpt>
      <trkpt lat="43.78047" lon="6.79755">
        <ele>1448.7</ele>
        <time>2012-06-01T12:09:05Z</time>
      </trkpt>
      <trkpt lat="43.78051" lon="6.79778">
        <ele>1445.5</ele>
        <time>2012-06-01T12:10:04Z</time>
      </trkpt>
      <trkpt lat="43.78043" lon="6.79783">
        <ele>1442.2</ele>
        <time>2012-06-01T12:10:34Z</time>
      </trkpt>
      <trkpt lat="43.78042" lon="6.79783">
        <ele>1442.1</ele>
        <time>2012-06-01T12:10:35Z</time>
      </trkpt>
      <trkpt lat="43.78035" lon="6.798">
        <ele>1439.7</ele>
        <time>2012-06-01T12:11:14Z</time>
      </trkpt>
      <trkpt lat="43.78033" lon="6.79811">
        <ele>1440.4</ele>
        <time>2012-06-01T12:11:29Z</time>
      </trkpt>
      <trkpt lat="43.78028" lon="6.79821">
        <ele>1441.2</ele>
        <time>2012-06-01T12:11:40Z</time>
      </trkpt>
      <trkpt lat="43.78028" lon="6.79822">
        <ele>1440.9</ele>
        <time>2012-06-01T12:11:41Z</time>
      </trkpt>
      <trkpt lat="43.78021" lon="6.79841">
        <ele>1440.8</ele>
        <time>2012-06-01T12:12:01Z</time>
      </trkpt>
      <trkpt lat="43.78015" lon="6.7985">
        <ele>1441.5</ele>
        <time>2012-06-01T12:12:23Z</time>
      </trkpt>
      <trkpt lat="43.78022" lon="6.79858">
        <ele>1440.8</ele>
        <time>2012-06-01T12:13:50Z</time>
      </trkpt>
      <trkpt lat="43.78022" lon="6.79859">
        <ele>1440.8</ele>
        <time>2012-06-01T12:13:51Z</time>
      </trkpt>
      <trkpt lat="43.78032" lon="6.79877">
        <ele>1437.5</ele>
        <time>2012-06-01T12:14:16Z</time>
      </trkpt>
      <trkpt lat="43.78037" lon="6.79887">
        <ele>1436.2</ele>
        <time>2012-06-01T12:14:30Z</time>
      </trkpt>
      <trkpt lat="43.78039" lon="6.79899">
        <ele>1436.4</ele>
        <time>2012-06-01T12:15:01Z</time>
      </trkpt>
      <trkpt lat="43.78038" lon="6.799">
        <ele>1436.2</ele>
        <time>2012-06-01T12:15:02Z</time>
      </trkpt>
      <trkpt lat="43.7804" lon="6.79921">
        <ele>1435.9</ele>
        <time>2012-06-01T12:15:28Z</time>
      </trkpt>
      <trkpt lat="43.7804" lon="6.79933">
        <ele>1437.2</ele>
        <time>2012-06-01T12:15:39Z</time>
      </trkpt>
      <trkpt lat="43.78044" lon="6.79944">
        <ele>1436.4</ele>
        <time>2012-06-01T12:15:50Z</time>
      </trkpt>
      <trkpt lat="43.7805" lon="6.79952">
        <ele>1436.4</ele>
        <time>2012-06-01T12:16:01Z</time>
      </trkpt>
      <trkpt lat="43.78057" lon="6.79961">
        <ele>1438</ele>
        <time>2012-06-01T12:16:23Z</time>
      </trkpt>
      <trkpt lat="43.78057" lon="6.79962">
        <ele>1438.3</ele>
        <time>2012-06-01T12:16:24Z</time>
      </trkpt>
      <trkpt lat="43.78057" lon="6.79985">
        <ele>1442.7</ele>
        <time>2012-06-01T12:17:14Z</time>
      </trkpt>
      <trkpt lat="43.78061" lon="6.79996">
        <ele>1444.2</ele>
        <time>2012-06-01T12:17:29Z</time>
      </trkpt>
      <trkpt lat="43.78061" lon="6.79997">
        <ele>1444.5</ele>
        <time>2012-06-01T12:17:30Z</time>
      </trkpt>
      <trkpt lat="43.7807" lon="6.80015">
        <ele>1447.6</ele>
        <time>2012-06-01T12:18:06Z</time>
      </trkpt>
      <trkpt lat="43.78078" lon="6.80016">
        <ele>1447.3</ele>
        <time>2012-06-01T12:18:19Z</time>
      </trkpt>
      <trkpt lat="43.78085" lon="6.80024">
        <ele>1445.9</ele>
        <time>2012-06-01T12:18:38Z</time>
      </trkpt>
      <trkpt lat="43.78086" lon="6.80025">
        <ele>1446.3</ele>
        <time>2012-06-01T12:18:39Z</time>
      </trkpt>
      <trkpt lat="43.78097" lon="6.80042">
        <ele>1446.1</ele>
        <time>2012-06-01T12:20:06Z</time>
      </trkpt>
      <trkpt lat="43.78097" lon="6.80043">
        <ele>1446.2</ele>
        <time>2012-06-01T12:20:07Z</time>
      </trkpt>
      <trkpt lat="43.78094" lon="6.80064">
        <ele>1448</ele>
        <time>2012-06-01T12:20:41Z</time>
      </trkpt>
      <trkpt lat="43.78089" lon="6.80073">
        <ele>1447.5</ele>
        <time>2012-06-01T12:20:56Z</time>
      </trkpt>
      <trkpt lat="43.78083" lon="6.80082">
        <ele>1448.8</ele>
        <time>2012-06-01T12:21:07Z</time>
      </trkpt>
      <trkpt lat="43.78082" lon="6.80082">
        <ele>1449</ele>
        <time>2012-06-01T12:21:08Z</time>
      </trkpt>
      <trkpt lat="43.7807" lon="6.80098">
        <ele>1449.6</ele>
        <time>2012-06-01T12:21:30Z</time>
      </trkpt>
      <trkpt lat="43.78064" lon="6.80106">
        <ele>1449.9</ele>
        <time>2012-06-01T12:21:41Z</time>
      </trkpt>
      <trkpt lat="43.78059" lon="6.80116">
        <ele>1450.2</ele>
        <time>2012-06-01T12:21:51Z</time>
      </trkpt>
      <trkpt lat="43.78056" lon="6.80128">
        <ele>1450.1</ele>
        <time>2012-06-01T12:22:00Z</time>
      </trkpt>
      <trkpt lat="43.78056" lon="6.8014">
        <ele>1451.8</ele>
        <time>2012-06-01T12:22:10Z</time>
      </trkpt>
      <trkpt lat="43.78056" lon="6.80141">
        <ele>1451.5</ele>
        <time>2012-06-01T12:22:11Z</time>
      </trkpt>
      <trkpt lat="43.78063" lon="6.80161">
        <ele>1453.3</ele>
        <time>2012-06-01T12:22:32Z</time>
      </trkpt>
      <trkpt lat="43.78065" lon="6.80172">
        <ele>1452.7</ele>
        <time>2012-06-01T12:22:42Z</time>
      </trkpt>
      <trkpt lat="43.78067" lon="6.80184">
        <ele>1452.6</ele>
        <time>2012-06-01T12:22:52Z</time>
      </trkpt>
      <trkpt lat="43.78064" lon="6.80194">
        <ele>1452.7</ele>
        <time>2012-06-01T12:23:03Z</time>
      </trkpt>
      <trkpt lat="43.78057" lon="6.80202">
        <ele>1453.9</ele>
        <time>2012-06-01T12:23:14Z</time>
      </trkpt>
      <trkpt lat="43.78057" lon="6.80203">
        <ele>1454.3</ele>
        <time>2012-06-01T12:23:15Z</time>
      </trkpt>
      <trkpt lat="43.7805" lon="6.80223">
        <ele>1457.1</ele>
        <time>2012-06-01T12:23:44Z</time>
      </trkpt>
      <trkpt lat="43.78043" lon="6.8023">
        <ele>1457.5</ele>
        <time>2012-06-01T12:23:59Z</time>
      </trkpt>
      <trkpt lat="43.7804" lon="6.80242">
        <ele>1458.8</ele>
        <time>2012-06-01T12:24:10Z</time>
      </trkpt>
      <trkpt lat="43.78037" lon="6.80253">
        <ele>1459.2</ele>
        <time>2012-06-01T12:24:21Z</time>
      </trkpt>
      <trkpt lat="43.78037" lon="6.80254">
        <ele>1459.1</ele>
        <time>2012-06-01T12:24:22Z</time>
      </trkpt>
      <trkpt lat="43.78041" lon="6.80275">
        <ele>1459.3</ele>
        <time>2012-06-01T12:24:41Z</time>
      </trkpt>
      <trkpt lat="43.78039" lon="6.80287">
        <ele>1459.1</ele>
        <time>2012-06-01T12:24:53Z</time>
      </trkpt>
      <trkpt lat="43.78035" lon="6.80297">
        <ele>1459.3</ele>
        <time>2012-06-01T12:25:05Z</time>
      </trkpt>
      <trkpt lat="43.78036" lon="6.80309">
        <ele>1459.9</ele>
        <time>2012-06-01T12:25:16Z</time>
      </trkpt>
      <trkpt lat="43.7804" lon="6.80319">
        <ele>1459.1</ele>
        <time>2012-06-01T12:25:24Z</time>
      </trkpt>
      <trkpt lat="43.7804" lon="6.8032">
        <ele>1460</ele>
        <time>2012-06-01T12:25:25Z</time>
      </trkpt>
      <trkpt lat="43.78053" lon="6.80336">
        <ele>1460.5</ele>
        <time>2012-06-01T12:25:51Z</time>
      </trkpt>
      <trkpt lat="43.78056" lon="6.80347">
        <ele>1460.2</ele>
        <time>2012-06-01T12:26:05Z</time>
      </trkpt>
      <trkpt lat="43.78062" lon="6.80356">
        <ele>1459.3</ele>
        <time>2012-06-01T12:26:13Z</time>
      </trkpt>
      <trkpt lat="43.78068" lon="6.80365">
        <ele>1459.2</ele>
        <time>2012-06-01T12:26:30Z</time>
      </trkpt>
      <trkpt lat="43.78068" lon="6.80365">
        <ele>1459.1</ele>
        <time>2012-06-01T12:26:31Z</time>
      </trkpt>
      <trkpt lat="43.7808" lon="6.80381">
        <ele>1458.2</ele>
        <time>2012-06-01T12:26:51Z</time>
      </trkpt>
      <trkpt lat="43.78087" lon="6.80387">
        <ele>1457.1</ele>
        <time>2012-06-01T12:27:00Z</time>
      </trkpt>
      <trkpt lat="43.78094" lon="6.80394">
        <ele>1457</ele>
        <time>2012-06-01T12:27:11Z</time>
      </trkpt>
      <trkpt lat="43.781" lon="6.80402">
        <ele>1456.2</ele>
        <time>2012-06-01T12:27:26Z</time>
      </trkpt>
      <trkpt lat="43.781" lon="6.80414">
        <ele>1458.3</ele>
        <time>2012-06-01T12:27:45Z</time>
      </trkpt>
      <trkpt lat="43.781" lon="6.80415">
        <ele>1458.5</ele>
        <time>2012-06-01T12:27:46Z</time>
      </trkpt>
      <trkpt lat="43.78102" lon="6.80436">
        <ele>1460.2</ele>
        <time>2012-06-01T12:28:12Z</time>
      </trkpt>
      <trkpt lat="43.78094" lon="6.80443">
        <ele>1463.4</ele>
        <time>2012-06-01T12:28:41Z</time>
      </trkpt>
      <trkpt lat="43.78086" lon="6.80445">
        <ele>1465.8</ele>
        <time>2012-06-01T12:29:00Z</time>
      </trkpt>
      <trkpt lat="43.78085" lon="6.80445">
        <ele>1465.9</ele>
        <time>2012-06-01T12:29:01Z</time>
      </trkpt>
      <trkpt lat="43.78081" lon="6.80467">
        <ele>1466.4</ele>
        <time>2012-06-01T12:30:04Z</time>
      </trkpt>
      <trkpt lat="43.78081" lon="6.80469">
        <ele>1466.6</ele>
        <time>2012-06-01T12:30:05Z</time>
      </trkpt>
      <trkpt lat="43.78081" lon="6.8049">
        <ele>1467.5</ele>
        <time>2012-06-01T12:30:27Z</time>
      </trkpt>
      <trkpt lat="43.78083" lon="6.80501">
        <ele>1468.3</ele>
        <time>2012-06-01T12:30:37Z</time>
      </trkpt>
      <trkpt lat="43.78086" lon="6.80513">
        <ele>1469.1</ele>
        <time>2012-06-01T12:30:48Z</time>
      </trkpt>
      <trkpt lat="43.7809" lon="6.80524">
        <ele>1469.9</ele>
        <time>2012-06-01T12:30:59Z</time>
      </trkpt>
      <trkpt lat="43.78087" lon="6.80535">
        <ele>1470.7</ele>
        <time>2012-06-01T12:31:13Z</time>
      </trkpt>
      <trkpt lat="43.78088" lon="6.80536">
        <ele>1470.7</ele>
        <time>2012-06-01T12:31:14Z</time>
      </trkpt>
      <trkpt lat="43.78098" lon="6.80555">
        <ele>1468.7</ele>
        <time>2012-06-01T12:31:33Z</time>
      </trkpt>
      <trkpt lat="43.78097" lon="6.80568">
        <ele>1470.6</ele>
        <time>2012-06-01T12:31:50Z</time>
      </trkpt>
      <trkpt lat="43.78099" lon="6.80579">
        <ele>1473.4</ele>
        <time>2012-06-01T12:32:02Z</time>
      </trkpt>
      <trkpt lat="43.78105" lon="6.80588">
        <ele>1473.4</ele>
        <time>2012-06-01T12:32:15Z</time>
      </trkpt>
      <trkpt lat="43.78105" lon="6.80589">
        <ele>1473.4</ele>
        <time>2012-06-01T12:32:16Z</time>
      </trkpt>
      <trkpt lat="43.7811" lon="6.8061">
        <ele>1472.8</ele>
        <time>2012-06-01T12:32:37Z</time>
      </trkpt>
      <trkpt lat="43.78113" lon="6.80622">
        <ele>1471.5</ele>
        <time>2012-06-01T12:32:50Z</time>
      </trkpt>
      <trkpt lat="43.78118" lon="6.80631">
        <ele>1471.3</ele>
        <time>2012-06-01T12:32:59Z</time>
      </trkpt>
      <trkpt lat="43.7811" lon="6.80637">
        <ele>1473.6</ele>
        <time>2012-06-01T12:33:31Z</time>
      </trkpt>
      <trkpt lat="43.7811" lon="6.80638">
        <ele>1474.2</ele>
        <time>2012-06-01T12:33:32Z</time>
      </trkpt>
      <trkpt lat="43.781" lon="6.80655">
        <ele>1478.8</ele>
        <time>2012-06-01T12:34:29Z</time>
      </trkpt>
      <trkpt lat="43.78092" lon="6.80661">
        <ele>1481.2</ele>
        <time>2012-06-01T12:35:07Z</time>
      </trkpt>
      <trkpt lat="43.78092" lon="6.80662">
        <ele>1481.1</ele>
        <time>2012-06-01T12:35:08Z</time>
      </trkpt>
      <trkpt lat="43.78084" lon="6.80682">
        <ele>1480.6</ele>
        <time>2012-06-01T12:36:05Z</time>
      </trkpt>
      <trkpt lat="43.78093" lon="6.80681">
        <ele>1481</ele>
        <time>2012-06-01T12:38:15Z</time>
      </trkpt>
      <trkpt lat="43.78093" lon="6.80681">
        <ele>1481.5</ele>
        <time>2012-06-01T12:38:16Z</time>
      </trkpt>
      <trkpt lat="43.781" lon="6.80674">
        <ele>1479.5</ele>
        <time>2012-06-01T12:39:44Z</time>
      </trkpt>
      <trkpt lat="43.781" lon="6.80687">
        <ele>1477.3</ele>
        <time>2012-06-01T12:42:12Z</time>
      </trkpt>
      <trkpt lat="43.78098" lon="6.8071">
        <ele>1477</ele>
        <time>2012-06-01T12:42:38Z</time>
      </trkpt>
      <trkpt lat="43.78097" lon="6.80721">
        <ele>1477.3</ele>
        <time>2012-06-01T12:42:47Z</time>
      </trkpt>
      <trkpt lat="43.78097" lon="6.80733">
        <ele>1476.7</ele>
        <time>2012-06-01T12:42:56Z</time>
      </trkpt>
      <trkpt lat="43.78094" lon="6.80744">
        <ele>1476.3</ele>
        <time>2012-06-01T12:43:06Z</time>
      </trkpt>
      <trkpt lat="43.7809" lon="6.80755">
        <ele>1476.8</ele>
        <time>2012-06-01T12:43:16Z</time>
      </trkpt>
      <trkpt lat="43.7809" lon="6.80756">
        <ele>1476.7</ele>
        <time>2012-06-01T12:43:17Z</time>
      </trkpt>
      <trkpt lat="43.78086" lon="6.80779">
        <ele>1474.1</ele>
        <time>2012-06-01T12:43:39Z</time>
      </trkpt>
      <trkpt lat="43.78088" lon="6.8079">
        <ele>1472.5</ele>
        <time>2012-06-01T12:43:50Z</time>
      </trkpt>
      <trkpt lat="43.78089" lon="6.80802">
        <ele>1471.8</ele>
        <time>2012-06-01T12:44:05Z</time>
      </trkpt>
      <trkpt lat="43.78092" lon="6.80813">
        <ele>1470.7</ele>
        <time>2012-06-01T12:44:19Z</time>
      </trkpt>
      <trkpt lat="43.78093" lon="6.80814">
        <ele>1470.4</ele>
        <time>2012-06-01T12:44:20Z</time>
      </trkpt>
      <trkpt lat="43.78104" lon="6.80832">
        <ele>1464.3</ele>
        <time>2012-06-01T12:44:49Z</time>
      </trkpt>
      <trkpt lat="43.78111" lon="6.80837">
        <ele>1462.3</ele>
        <time>2012-06-01T12:45:00Z</time>
      </trkpt>
      <trkpt lat="43.78118" lon="6.80844">
        <ele>1460.1</ele>
        <time>2012-06-01T12:45:20Z</time>
      </trkpt>
      <trkpt lat="43.78119" lon="6.80844">
        <ele>1460.2</ele>
        <time>2012-06-01T12:45:21Z</time>
      </trkpt>
      <trkpt lat="43.78135" lon="6.80851">
        <ele>1456.1</ele>
        <time>2012-06-01T12:45:48Z</time>
      </trkpt>
      <trkpt lat="43.78143" lon="6.80857">
        <ele>1452.4</ele>
        <time>2012-06-01T12:46:17Z</time>
      </trkpt>
      <trkpt lat="43.78151" lon="6.80859">
        <ele>1449.2</ele>
        <time>2012-06-01T12:46:28Z</time>
      </trkpt>
      <trkpt lat="43.78152" lon="6.80859">
        <ele>1449.4</ele>
        <time>2012-06-01T12:46:29Z</time>
      </trkpt>
      <trkpt lat="43.78168" lon="6.80861">
        <ele>1445.6</ele>
        <time>2012-06-01T12:46:59Z</time>
      </trkpt>
      <trkpt lat="43.78177" lon="6.80858">
        <ele>1443.6</ele>
        <time>2012-06-01T12:47:11Z</time>
      </trkpt>
      <trkpt lat="43.78184" lon="6.80853">
        <ele>1441.7</ele>
        <time>2012-06-01T12:47:26Z</time>
      </trkpt>
      <trkpt lat="43.78191" lon="6.80859">
        <ele>1438.1</ele>
        <time>2012-06-01T12:48:05Z</time>
      </trkpt>
      <trkpt lat="43.78192" lon="6.8086">
        <ele>1438.1</ele>
        <time>2012-06-01T12:48:06Z</time>
      </trkpt>
      <trkpt lat="43.78207" lon="6.80866">
        <ele>1433.4</ele>
        <time>2012-06-01T12:48:44Z</time>
      </trkpt>
      <trkpt lat="43.78214" lon="6.80875">
        <ele>1428.7</ele>
        <time>2012-06-01T12:49:11Z</time>
      </trkpt>
      <trkpt lat="43.78214" lon="6.80876">
        <ele>1428.4</ele>
        <time>2012-06-01T12:49:12Z</time>
      </trkpt>
      <trkpt lat="43.78218" lon="6.80898">
        <ele>1423.9</ele>
        <time>2012-06-01T12:49:43Z</time>
      </trkpt>
      <trkpt lat="43.78217" lon="6.8091">
        <ele>1421.2</ele>
        <time>2012-06-01T12:49:59Z</time>
      </trkpt>
      <trkpt lat="43.78218" lon="6.80922">
        <ele>1419.1</ele>
        <time>2012-06-01T12:50:12Z</time>
      </trkpt>
      <trkpt lat="43.78219" lon="6.80923">
        <ele>1418.6</ele>
        <time>2012-06-01T12:50:13Z</time>
      </trkpt>
      <trkpt lat="43.78228" lon="6.80942">
        <ele>1414.4</ele>
        <time>2012-06-01T12:50:52Z</time>
      </trkpt>
      <trkpt lat="43.78233" lon="6.80951">
        <ele>1412.3</ele>
        <time>2012-06-01T12:51:14Z</time>
      </trkpt>
      <trkpt lat="43.78234" lon="6.80952">
        <ele>1412.7</ele>
        <time>2012-06-01T12:51:15Z</time>
      </trkpt>
      <trkpt lat="43.78246" lon="6.80968">
        <ele>1405.9</ele>
        <time>2012-06-01T12:52:18Z</time>
      </trkpt>
      <trkpt lat="43.78247" lon="6.80968">
        <ele>1405.8</ele>
        <time>2012-06-01T12:52:19Z</time>
      </trkpt>
      <trkpt lat="43.78262" lon="6.80978">
        <ele>1398.8</ele>
        <time>2012-06-01T12:53:43Z</time>
      </trkpt>
      <trkpt lat="43.78263" lon="6.80978">
        <ele>1399</ele>
        <time>2012-06-01T12:53:44Z</time>
      </trkpt>
      <trkpt lat="43.78275" lon="6.80992">
        <ele>1391.8</ele>
        <time>2012-06-01T12:54:42Z</time>
      </trkpt>
      <trkpt lat="43.78284" lon="6.80997">
        <ele>1388</ele>
        <time>2012-06-01T12:55:28Z</time>
      </trkpt>
      <trkpt lat="43.78284" lon="6.80997">
        <ele>1388</ele>
        <time>2012-06-01T12:55:29Z</time>
      </trkpt>
      <trkpt lat="43.78296" lon="6.81013">
        <ele>1382.5</ele>
        <time>2012-06-01T12:56:26Z</time>
      </trkpt>
      <trkpt lat="43.78305" lon="6.81014">
        <ele>1380.1</ele>
        <time>2012-06-01T12:56:53Z</time>
      </trkpt>
      <trkpt lat="43.78305" lon="6.81014">
        <ele>1379.7</ele>
        <time>2012-06-01T12:56:54Z</time>
      </trkpt>
      <trkpt lat="43.78322" lon="6.81013">
        <ele>1377.5</ele>
        <time>2012-06-01T12:57:29Z</time>
      </trkpt>
      <trkpt lat="43.7833" lon="6.81016">
        <ele>1374</ele>
        <time>2012-06-01T12:57:43Z</time>
      </trkpt>
      <trkpt lat="43.78338" lon="6.81023">
        <ele>1371.7</ele>
        <time>2012-06-01T12:57:56Z</time>
      </trkpt>
      <trkpt lat="43.78338" lon="6.81023">
        <ele>1372.1</ele>
        <time>2012-06-01T12:57:57Z</time>
      </trkpt>
      <trkpt lat="43.78355" lon="6.81028">
        <ele>1368.7</ele>
        <time>2012-06-01T12:58:21Z</time>
      </trkpt>
      <trkpt lat="43.78363" lon="6.81033">
        <ele>1366.2</ele>
        <time>2012-06-01T12:58:35Z</time>
      </trkpt>
      <trkpt lat="43.78371" lon="6.81039">
        <ele>1364.2</ele>
        <time>2012-06-01T12:58:46Z</time>
      </trkpt>
      <trkpt lat="43.78378" lon="6.81045">
        <ele>1362.9</ele>
        <time>2012-06-01T12:58:57Z</time>
      </trkpt>
      <trkpt lat="43.78379" lon="6.81046">
        <ele>1362.9</ele>
        <time>2012-06-01T12:58:58Z</time>
      </trkpt>
      <trkpt lat="43.78396" lon="6.81045">
        <ele>1362</ele>
        <time>2012-06-01T12:59:58Z</time>
      </trkpt>
      <trkpt lat="43.78396" lon="6.81045">
        <ele>1362.3</ele>
        <time>2012-06-01T12:59:59Z</time>
      </trkpt>
      <trkpt lat="43.78404" lon="6.8104">
        <ele>1360.8</ele>
        <time>2012-06-01T13:01:03Z</time>
      </trkpt>
      <trkpt lat="43.78422" lon="6.81042">
        <ele>1358.2</ele>
        <time>2012-06-01T13:01:37Z</time>
      </trkpt>
      <trkpt lat="43.7843" lon="6.81039">
        <ele>1357.1</ele>
        <time>2012-06-01T13:01:48Z</time>
      </trkpt>
      <trkpt lat="43.78439" lon="6.81035">
        <ele>1356.9</ele>
        <time>2012-06-01T13:02:07Z</time>
      </trkpt>
      <trkpt lat="43.78439" lon="6.81035">
        <ele>1357.1</ele>
        <time>2012-06-01T13:02:08Z</time>
      </trkpt>
      <trkpt lat="43.78432" lon="6.81055">
        <ele>1354.2</ele>
        <time>2012-06-01T13:02:43Z</time>
      </trkpt>
      <trkpt lat="43.78426" lon="6.81063">
        <ele>1352.9</ele>
        <time>2012-06-01T13:02:58Z</time>
      </trkpt>
      <trkpt lat="43.78418" lon="6.8107">
        <ele>1351.6</ele>
        <time>2012-06-01T13:03:11Z</time>
      </trkpt>
      <trkpt lat="43.78418" lon="6.81071">
        <ele>1351.6</ele>
        <time>2012-06-01T13:03:12Z</time>
      </trkpt>
      <trkpt lat="43.78405" lon="6.81086">
        <ele>1348.5</ele>
        <time>2012-06-01T13:03:35Z</time>
      </trkpt>
      <trkpt lat="43.78397" lon="6.81093">
        <ele>1348.9</ele>
        <time>2012-06-01T13:03:49Z</time>
      </trkpt>
      <trkpt lat="43.7839" lon="6.81099">
        <ele>1349.1</ele>
        <time>2012-06-01T13:04:00Z</time>
      </trkpt>
      <trkpt lat="43.78382" lon="6.81103">
        <ele>1349.7</ele>
        <time>2012-06-01T13:04:08Z</time>
      </trkpt>
      <trkpt lat="43.78374" lon="6.81107">
        <ele>1350.3</ele>
        <time>2012-06-01T13:04:20Z</time>
      </trkpt>
      <trkpt lat="43.78373" lon="6.81106">
        <ele>1350.3</ele>
        <time>2012-06-01T13:04:21Z</time>
      </trkpt>
      <trkpt lat="43.78359" lon="6.81116">
        <ele>1350.8</ele>
        <time>2012-06-01T13:04:38Z</time>
      </trkpt>
      <trkpt lat="43.78351" lon="6.81123">
        <ele>1350.9</ele>
        <time>2012-06-01T13:04:47Z</time>
      </trkpt>
      <trkpt lat="43.78344" lon="6.81129">
        <ele>1351</ele>
        <time>2012-06-01T13:04:58Z</time>
      </trkpt>
      <trkpt lat="43.7834" lon="6.81139">
        <ele>1350.4</ele>
        <time>2012-06-01T13:05:08Z</time>
      </trkpt>
      <trkpt lat="43.78338" lon="6.8115">
        <ele>1350.3</ele>
        <time>2012-06-01T13:05:17Z</time>
      </trkpt>
      <trkpt lat="43.78335" lon="6.81161">
        <ele>1350.3</ele>
        <time>2012-06-01T13:05:25Z</time>
      </trkpt>
      <trkpt lat="43.78334" lon="6.81162">
        <ele>1350.4</ele>
        <time>2012-06-01T13:05:26Z</time>
      </trkpt>
      <trkpt lat="43.78332" lon="6.81183">
        <ele>1348.9</ele>
        <time>2012-06-01T13:05:43Z</time>
      </trkpt>
      <trkpt lat="43.78328" lon="6.81194">
        <ele>1348.9</ele>
        <time>2012-06-01T13:05:52Z</time>
      </trkpt>
      <trkpt lat="43.78325" lon="6.81205">
        <ele>1349.6</ele>
        <time>2012-06-01T13:06:02Z</time>
      </trkpt>
      <trkpt lat="43.78322" lon="6.81217">
        <ele>1349.2</ele>
        <time>2012-06-01T13:06:11Z</time>
      </trkpt>
      <trkpt lat="43.7832" lon="6.81228">
        <ele>1348.3</ele>
        <time>2012-06-01T13:06:19Z</time>
      </trkpt>
      <trkpt lat="43.78318" lon="6.8124">
        <ele>1347.1</ele>
        <time>2012-06-01T13:06:28Z</time>
      </trkpt>
      <trkpt lat="43.78317" lon="6.81242">
        <ele>1347</ele>
        <time>2012-06-01T13:06:29Z</time>
      </trkpt>
      <trkpt lat="43.78313" lon="6.81264">
        <ele>1347.3</ele>
        <time>2012-06-01T13:06:53Z</time>
      </trkpt>
      <trkpt lat="43.78311" lon="6.81275">
        <ele>1347.5</ele>
        <time>2012-06-01T13:07:00Z</time>
      </trkpt>
      <trkpt lat="43.78309" lon="6.81286">
        <ele>1347.9</ele>
        <time>2012-06-01T13:07:08Z</time>
      </trkpt>
      <trkpt lat="43.78305" lon="6.81296">
        <ele>1346.8</ele>
        <time>2012-06-01T13:07:16Z</time>
      </trkpt>
      <trkpt lat="43.78299" lon="6.81303">
        <ele>1346.9</ele>
        <time>2012-06-01T13:07:27Z</time>
      </trkpt>
      <trkpt lat="43.7829" lon="6.81306">
        <ele>1346.4</ele>
        <time>2012-06-01T13:07:37Z</time>
      </trkpt>
      <trkpt lat="43.78289" lon="6.81306">
        <ele>1346.4</ele>
        <time>2012-06-01T13:07:38Z</time>
      </trkpt>
      <trkpt lat="43.78274" lon="6.81299">
        <ele>1344.4</ele>
        <time>2012-06-01T13:08:00Z</time>
      </trkpt>
      <trkpt lat="43.78266" lon="6.81295">
        <ele>1342.6</ele>
        <time>2012-06-01T13:08:09Z</time>
      </trkpt>
      <trkpt lat="43.78258" lon="6.81291">
        <ele>1341.4</ele>
        <time>2012-06-01T13:08:19Z</time>
      </trkpt>
      <trkpt lat="43.7825" lon="6.81295">
        <ele>1341</ele>
        <time>2012-06-01T13:08:30Z</time>
      </trkpt>
      <trkpt lat="43.78246" lon="6.81306">
        <ele>1339.3</ele>
        <time>2012-06-01T13:08:43Z</time>
      </trkpt>
      <trkpt lat="43.78246" lon="6.81307">
        <ele>1338.6</ele>
        <time>2012-06-01T13:08:44Z</time>
      </trkpt>
      <trkpt lat="43.78251" lon="6.81328">
        <ele>1336.1</ele>
        <time>2012-06-01T13:09:22Z</time>
      </trkpt>
      <trkpt lat="43.78247" lon="6.81339">
        <ele>1336.4</ele>
        <time>2012-06-01T13:09:33Z</time>
      </trkpt>
      <trkpt lat="43.78246" lon="6.81351">
        <ele>1334.7</ele>
        <time>2012-06-01T13:09:43Z</time>
      </trkpt>
      <trkpt lat="43.78247" lon="6.81364">
        <ele>1334.8</ele>
        <time>2012-06-01T13:09:51Z</time>
      </trkpt>
      <trkpt lat="43.78248" lon="6.81365">
        <ele>1334.6</ele>
        <time>2012-06-01T13:09:52Z</time>
      </trkpt>
      <trkpt lat="43.78252" lon="6.81386">
        <ele>1334.5</ele>
        <time>2012-06-01T13:10:06Z</time>
      </trkpt>
      <trkpt lat="43.78255" lon="6.81397">
        <ele>1333.4</ele>
        <time>2012-06-01T13:10:15Z</time>
      </trkpt>
      <trkpt lat="43.78256" lon="6.81408">
        <ele>1334.5</ele>
        <time>2012-06-01T13:10:23Z</time>
      </trkpt>
      <trkpt lat="43.78255" lon="6.8142">
        <ele>1333.3</ele>
        <time>2012-06-01T13:10:33Z</time>
      </trkpt>
      <trkpt lat="43.78253" lon="6.81431">
        <ele>1332.4</ele>
        <time>2012-06-01T13:10:42Z</time>
      </trkpt>
      <trkpt lat="43.78249" lon="6.81442">
        <ele>1331.9</ele>
        <time>2012-06-01T13:10:50Z</time>
      </trkpt>
      <trkpt lat="43.78245" lon="6.81453">
        <ele>1331</ele>
        <time>2012-06-01T13:10:59Z</time>
      </trkpt>
      <trkpt lat="43.78244" lon="6.81454">
        <ele>1331.1</ele>
        <time>2012-06-01T13:11:00Z</time>
      </trkpt>
      <trkpt lat="43.7823" lon="6.81463">
        <ele>1331.3</ele>
        <time>2012-06-01T13:11:20Z</time>
      </trkpt>
      <trkpt lat="43.78223" lon="6.81469">
        <ele>1330.6</ele>
        <time>2012-06-01T13:11:29Z</time>
      </trkpt>
      <trkpt lat="43.78216" lon="6.81477">
        <ele>1330</ele>
        <time>2012-06-01T13:11:38Z</time>
      </trkpt>
      <trkpt lat="43.78213" lon="6.81488">
        <ele>1329.4</ele>
        <time>2012-06-01T13:11:52Z</time>
      </trkpt>
      <trkpt lat="43.78212" lon="6.81499">
        <ele>1327.2</ele>
        <time>2012-06-01T13:12:01Z</time>
      </trkpt>
      <trkpt lat="43.78212" lon="6.81501">
        <ele>1328</ele>
        <time>2012-06-01T13:12:02Z</time>
      </trkpt>
      <trkpt lat="43.78196" lon="6.81503">
        <ele>1325.2</ele>
        <time>2012-06-01T13:12:50Z</time>
      </trkpt>
      <trkpt lat="43.78187" lon="6.81504">
        <ele>1327.4</ele>
        <time>2012-06-01T13:13:06Z</time>
      </trkpt>
      <trkpt lat="43.78187" lon="6.81503">
        <ele>1327.4</ele>
        <time>2012-06-01T13:13:07Z</time>
      </trkpt>
      <trkpt lat="43.78171" lon="6.81504">
        <ele>1325.1</ele>
        <time>2012-06-01T13:13:44Z</time>
      </trkpt>
      <trkpt lat="43.78162" lon="6.81505">
        <ele>1323.2</ele>
        <time>2012-06-01T13:13:56Z</time>
      </trkpt>
      <trkpt lat="43.78154" lon="6.81502">
        <ele>1322.7</ele>
        <time>2012-06-01T13:14:06Z</time>
      </trkpt>
      <trkpt lat="43.78145" lon="6.81499">
        <ele>1322.4</ele>
        <time>2012-06-01T13:14:21Z</time>
      </trkpt>
      <trkpt lat="43.78145" lon="6.815">
        <ele>1322.4</ele>
        <time>2012-06-01T13:14:22Z</time>
      </trkpt>
      <trkpt lat="43.78129" lon="6.81508">
        <ele>1320.3</ele>
        <time>2012-06-01T13:14:57Z</time>
      </trkpt>
      <trkpt lat="43.78122" lon="6.81503">
        <ele>1317.3</ele>
        <time>2012-06-01T13:15:16Z</time>
      </trkpt>
      <trkpt lat="43.78113" lon="6.81505">
        <ele>1316.8</ele>
        <time>2012-06-01T13:15:30Z</time>
      </trkpt>
      <trkpt lat="43.78113" lon="6.81505">
        <ele>1316.4</ele>
        <time>2012-06-01T13:15:31Z</time>
      </trkpt>
      <trkpt lat="43.78097" lon="6.81495">
        <ele>1312.8</ele>
        <time>2012-06-01T13:15:57Z</time>
      </trkpt>
      <trkpt lat="43.78089" lon="6.81491">
        <ele>1313.6</ele>
        <time>2012-06-01T13:16:07Z</time>
      </trkpt>
      <trkpt lat="43.78081" lon="6.81489">
        <ele>1314.3</ele>
        <time>2012-06-01T13:16:13Z</time>
      </trkpt>
      <trkpt lat="43.78074" lon="6.81483">
        <ele>1311.9</ele>
        <time>2012-06-01T13:16:27Z</time>
      </trkpt>
      <trkpt lat="43.78066" lon="6.81479">
        <ele>1310</ele>
        <time>2012-06-01T13:16:47Z</time>
      </trkpt>
      <trkpt lat="43.78065" lon="6.81479">
        <ele>1310.4</ele>
        <time>2012-06-01T13:16:48Z</time>
      </trkpt>
      <trkpt lat="43.78049" lon="6.81472">
        <ele>1307.4</ele>
        <time>2012-06-01T13:17:42Z</time>
      </trkpt>
      <trkpt lat="43.78044" lon="6.81462">
        <ele>1306.5</ele>
        <time>2012-06-01T13:18:09Z</time>
      </trkpt>
      <trkpt lat="43.78044" lon="6.81461">
        <ele>1306.6</ele>
        <time>2012-06-01T13:18:10Z</time>
      </trkpt>
      <trkpt lat="43.78036" lon="6.8144">
        <ele>1305</ele>
        <time>2012-06-01T13:18:47Z</time>
      </trkpt>
      <trkpt lat="43.7803" lon="6.81432">
        <ele>1305.1</ele>
        <time>2012-06-01T13:19:05Z</time>
      </trkpt>
      <trkpt lat="43.78025" lon="6.81422">
        <ele>1304</ele>
        <time>2012-06-01T13:19:23Z</time>
      </trkpt>
      <trkpt lat="43.78025" lon="6.81421">
        <ele>1303.9</ele>
        <time>2012-06-01T13:19:24Z</time>
      </trkpt>
      <trkpt lat="43.7801" lon="6.8141">
        <ele>1298.9</ele>
        <time>2012-06-01T13:20:27Z</time>
      </trkpt>
      <trkpt lat="43.7801" lon="6.81409">
        <ele>1298.5</ele>
        <time>2012-06-01T13:20:28Z</time>
      </trkpt>
      <trkpt lat="43.77995" lon="6.81398">
        <ele>1293.8</ele>
        <time>2012-06-01T13:21:09Z</time>
      </trkpt>
      <trkpt lat="43.77989" lon="6.81389">
        <ele>1292.2</ele>
        <time>2012-06-01T13:21:26Z</time>
      </trkpt>
      <trkpt lat="43.77983" lon="6.8138">
        <ele>1290.7</ele>
        <time>2012-06-01T13:21:39Z</time>
      </trkpt>
      <trkpt lat="43.77983" lon="6.81379">
        <ele>1290.7</ele>
        <time>2012-06-01T13:21:40Z</time>
      </trkpt>
      <trkpt lat="43.77971" lon="6.81362">
        <ele>1289.3</ele>
        <time>2012-06-01T13:22:04Z</time>
      </trkpt>
      <trkpt lat="43.77966" lon="6.81353">
        <ele>1288.1</ele>
        <time>2012-06-01T13:22:17Z</time>
      </trkpt>
      <trkpt lat="43.7796" lon="6.81345">
        <ele>1285.4</ele>
        <time>2012-06-01T13:22:36Z</time>
      </trkpt>
      <trkpt lat="43.77956" lon="6.81334">
        <ele>1283.8</ele>
        <time>2012-06-01T13:23:00Z</time>
      </trkpt>
      <trkpt lat="43.77955" lon="6.81333">
        <ele>1283.8</ele>
        <time>2012-06-01T13:23:01Z</time>
      </trkpt>
      <trkpt lat="43.77943" lon="6.81319">
        <ele>1280.7</ele>
        <time>2012-06-01T13:23:22Z</time>
      </trkpt>
      <trkpt lat="43.77934" lon="6.81314">
        <ele>1277.5</ele>
        <time>2012-06-01T13:23:38Z</time>
      </trkpt>
      <trkpt lat="43.77927" lon="6.81308">
        <ele>1275</ele>
        <time>2012-06-01T13:23:51Z</time>
      </trkpt>
      <trkpt lat="43.77921" lon="6.81299">
        <ele>1272.9</ele>
        <time>2012-06-01T13:24:05Z</time>
      </trkpt>
      <trkpt lat="43.77921" lon="6.81298">
        <ele>1272.8</ele>
        <time>2012-06-01T13:24:06Z</time>
      </trkpt>
      <trkpt lat="43.77906" lon="6.81286">
        <ele>1268.8</ele>
        <time>2012-06-01T13:24:42Z</time>
      </trkpt>
      <trkpt lat="43.77899" lon="6.81278">
        <ele>1267.1</ele>
        <time>2012-06-01T13:25:04Z</time>
      </trkpt>
      <trkpt lat="43.77894" lon="6.81268">
        <ele>1265.9</ele>
        <time>2012-06-01T13:25:25Z</time>
      </trkpt>
      <trkpt lat="43.77894" lon="6.81267">
        <ele>1265.5</ele>
        <time>2012-06-01T13:25:26Z</time>
      </trkpt>
      <trkpt lat="43.77883" lon="6.81254">
        <ele>1261.8</ele>
        <time>2012-06-01T13:26:20Z</time>
      </trkpt>
      <trkpt lat="43.77877" lon="6.81245">
        <ele>1258.4</ele>
        <time>2012-06-01T13:26:45Z</time>
      </trkpt>
      <trkpt lat="43.77876" lon="6.81245">
        <ele>1258.9</ele>
        <time>2012-06-01T13:26:46Z</time>
      </trkpt>
      <trkpt lat="43.77862" lon="6.81233">
        <ele>1256.5</ele>
        <time>2012-06-01T13:27:22Z</time>
      </trkpt>
      <trkpt lat="43.77853" lon="6.81231">
        <ele>1254.3</ele>
        <time>2012-06-01T13:27:46Z</time>
      </trkpt>
      <trkpt lat="43.77853" lon="6.81231">
        <ele>1254.1</ele>
        <time>2012-06-01T13:27:47Z</time>
      </trkpt>
      <trkpt lat="43.7784" lon="6.81245">
        <ele>1250.1</ele>
        <time>2012-06-01T13:28:16Z</time>
      </trkpt>
      <trkpt lat="43.77834" lon="6.81254">
        <ele>1248.6</ele>
        <time>2012-06-01T13:28:34Z</time>
      </trkpt>
      <trkpt lat="43.77826" lon="6.81259">
        <ele>1245.5</ele>
        <time>2012-06-01T13:28:57Z</time>
      </trkpt>
      <trkpt lat="43.77825" lon="6.81259">
        <ele>1245.5</ele>
        <time>2012-06-01T13:28:59Z</time>
      </trkpt>
      <trkpt lat="43.77809" lon="6.81264">
        <ele>1240.8</ele>
        <time>2012-06-01T13:29:35Z</time>
      </trkpt>
      <trkpt lat="43.77801" lon="6.81258">
        <ele>1238.1</ele>
        <time>2012-06-01T13:29:47Z</time>
      </trkpt>
      <trkpt lat="43.77793" lon="6.81256">
        <ele>1236.7</ele>
        <time>2012-06-01T13:29:57Z</time>
      </trkpt>
      <trkpt lat="43.77785" lon="6.81251">
        <ele>1236.6</ele>
        <time>2012-06-01T13:30:05Z</time>
      </trkpt>
      <trkpt lat="43.77784" lon="6.81251">
        <ele>1236.5</ele>
        <time>2012-06-01T13:30:06Z</time>
      </trkpt>
      <trkpt lat="43.77769" lon="6.81248">
        <ele>1236.3</ele>
        <time>2012-06-01T13:30:19Z</time>
      </trkpt>
      <trkpt lat="43.77761" lon="6.81245">
        <ele>1236.1</ele>
        <time>2012-06-01T13:30:27Z</time>
      </trkpt>
      <trkpt lat="43.77753" lon="6.8125">
        <ele>1234.9</ele>
        <time>2012-06-01T13:30:36Z</time>
      </trkpt>
      <trkpt lat="43.77747" lon="6.81257">
        <ele>1235.4</ele>
        <time>2012-06-01T13:30:45Z</time>
      </trkpt>
      <trkpt lat="43.77741" lon="6.81267">
        <ele>1233.4</ele>
        <time>2012-06-01T13:30:56Z</time>
      </trkpt>
      <trkpt lat="43.77737" lon="6.81278">
        <ele>1231.4</ele>
        <time>2012-06-01T13:31:10Z</time>
      </trkpt>
      <trkpt lat="43.77737" lon="6.81278">
        <ele>1231.7</ele>
        <time>2012-06-01T13:31:11Z</time>
      </trkpt>
      <trkpt lat="43.77722" lon="6.81289">
        <ele>1228.1</ele>
        <time>2012-06-01T13:31:50Z</time>
      </trkpt>
      <trkpt lat="43.77713" lon="6.81288">
        <ele>1226</ele>
        <time>2012-06-01T13:32:11Z</time>
      </trkpt>
      <trkpt lat="43.77713" lon="6.81289">
        <ele>1226.3</ele>
        <time>2012-06-01T13:32:12Z</time>
      </trkpt>
      <trkpt lat="43.77696" lon="6.81282">
        <ele>1222.5</ele>
        <time>2012-06-01T13:32:53Z</time>
      </trkpt>
      <trkpt lat="43.7769" lon="6.81274">
        <ele>1219.5</ele>
        <time>2012-06-01T13:33:11Z</time>
      </trkpt>
      <trkpt lat="43.77682" lon="6.8127">
        <ele>1217.5</ele>
        <time>2012-06-01T13:33:29Z</time>
      </trkpt>
      <trkpt lat="43.77681" lon="6.81269">
        <ele>1217.3</ele>
        <time>2012-06-01T13:33:30Z</time>
      </trkpt>
      <trkpt lat="43.77666" lon="6.81261">
        <ele>1215.5</ele>
        <time>2012-06-01T13:33:54Z</time>
      </trkpt>
      <trkpt lat="43.77658" lon="6.81255">
        <ele>1213.5</ele>
        <time>2012-06-01T13:34:11Z</time>
      </trkpt>
      <trkpt lat="43.77653" lon="6.81245">
        <ele>1210.9</ele>
        <time>2012-06-01T13:34:25Z</time>
      </trkpt>
      <trkpt lat="43.77644" lon="6.81242">
        <ele>1210</ele>
        <time>2012-06-01T13:34:41Z</time>
      </trkpt>
      <trkpt lat="43.77644" lon="6.81242">
        <ele>1210.2</ele>
        <time>2012-06-01T13:34:42Z</time>
      </trkpt>
      <trkpt lat="43.7763" lon="6.81229">
        <ele>1207.1</ele>
        <time>2012-06-01T13:35:15Z</time>
      </trkpt>
      <trkpt lat="43.77622" lon="6.81222">
        <ele>1205.7</ele>
        <time>2012-06-01T13:35:28Z</time>
      </trkpt>
      <trkpt lat="43.77614" lon="6.81217">
        <ele>1205.2</ele>
        <time>2012-06-01T13:35:39Z</time>
      </trkpt>
      <trkpt lat="43.77609" lon="6.81207">
        <ele>1204.2</ele>
        <time>2012-06-01T13:35:48Z</time>
      </trkpt>
      <trkpt lat="43.77609" lon="6.81206">
        <ele>1204.4</ele>
        <time>2012-06-01T13:35:49Z</time>
      </trkpt>
      <trkpt lat="43.77605" lon="6.81185">
        <ele>1204.1</ele>
        <time>2012-06-01T13:36:06Z</time>
      </trkpt>
      <trkpt lat="43.776" lon="6.81175">
        <ele>1203.1</ele>
        <time>2012-06-01T13:36:18Z</time>
      </trkpt>
      <trkpt lat="43.77594" lon="6.81166">
        <ele>1201.3</ele>
        <time>2012-06-01T13:36:32Z</time>
      </trkpt>
      <trkpt lat="43.77589" lon="6.81176">
        <ele>1199.7</ele>
        <time>2012-06-01T13:36:45Z</time>
      </trkpt>
      <trkpt lat="43.7759" lon="6.81188">
        <ele>1198.7</ele>
        <time>2012-06-01T13:36:58Z</time>
      </trkpt>
      <trkpt lat="43.77591" lon="6.81189">
        <ele>1198.9</ele>
        <time>2012-06-01T13:36:59Z</time>
      </trkpt>
      <trkpt lat="43.7759" lon="6.81211">
        <ele>1196.9</ele>
        <time>2012-06-01T13:37:22Z</time>
      </trkpt>
      <trkpt lat="43.77586" lon="6.81222">
        <ele>1195.7</ele>
        <time>2012-06-01T13:37:35Z</time>
      </trkpt>
      <trkpt lat="43.77585" lon="6.81234">
        <ele>1195.2</ele>
        <time>2012-06-01T13:37:46Z</time>
      </trkpt>
      <trkpt lat="43.77581" lon="6.81245">
        <ele>1193.2</ele>
        <time>2012-06-01T13:38:01Z</time>
      </trkpt>
      <trkpt lat="43.77581" lon="6.81246">
        <ele>1193.5</ele>
        <time>2012-06-01T13:38:02Z</time>
      </trkpt>
      <trkpt lat="43.77566" lon="6.81258">
        <ele>1189</ele>
        <time>2012-06-01T13:38:47Z</time>
      </trkpt>
      <trkpt lat="43.77567" lon="6.8127">
        <ele>1188</ele>
        <time>2012-06-01T13:39:44Z</time>
      </trkpt>
      <trkpt lat="43.77567" lon="6.81271">
        <ele>1188.2</ele>
        <time>2012-06-01T13:39:45Z</time>
      </trkpt>
      <trkpt lat="43.77564" lon="6.81294">
        <ele>1188.9</ele>
        <time>2012-06-01T13:40:26Z</time>
      </trkpt>
      <trkpt lat="43.77561" lon="6.81305">
        <ele>1190</ele>
        <time>2012-06-01T13:40:37Z</time>
      </trkpt>
      <trkpt lat="43.77565" lon="6.81315">
        <ele>1191.2</ele>
        <time>2012-06-01T13:41:01Z</time>
      </trkpt>
      <trkpt lat="43.77565" lon="6.81316">
        <ele>1191.2</ele>
        <time>2012-06-01T13:41:02Z</time>
      </trkpt>
      <trkpt lat="43.77569" lon="6.81338">
        <ele>1191.1</ele>
        <time>2012-06-01T13:41:21Z</time>
      </trkpt>
      <trkpt lat="43.77571" lon="6.81349">
        <ele>1193</ele>
        <time>2012-06-01T13:41:30Z</time>
      </trkpt>
      <trkpt lat="43.77573" lon="6.81361">
        <ele>1191.6</ele>
        <time>2012-06-01T13:41:41Z</time>
      </trkpt>
      <trkpt lat="43.77575" lon="6.81372">
        <ele>1192.2</ele>
        <time>2012-06-01T13:41:52Z</time>
      </trkpt>
      <trkpt lat="43.77579" lon="6.81382">
        <ele>1191.2</ele>
        <time>2012-06-01T13:42:00Z</time>
      </trkpt>
      <trkpt lat="43.77582" lon="6.81393">
        <ele>1191.4</ele>
        <time>2012-06-01T13:42:08Z</time>
      </trkpt>
      <trkpt lat="43.77583" lon="6.81395">
        <ele>1191.4</ele>
        <time>2012-06-01T13:42:09Z</time>
      </trkpt>
      <trkpt lat="43.77593" lon="6.8141">
        <ele>1190.4</ele>
        <time>2012-06-01T13:42:29Z</time>
      </trkpt>
      <trkpt lat="43.77598" lon="6.8142">
        <ele>1189.7</ele>
        <time>2012-06-01T13:42:37Z</time>
      </trkpt>
      <trkpt lat="43.77604" lon="6.81428">
        <ele>1187.9</ele>
        <time>2012-06-01T13:42:47Z</time>
      </trkpt>
      <trkpt lat="43.7761" lon="6.81437">
        <ele>1187.9</ele>
        <time>2012-06-01T13:42:59Z</time>
      </trkpt>
      <trkpt lat="43.77615" lon="6.81446">
        <ele>1186.5</ele>
        <time>2012-06-01T13:43:09Z</time>
      </trkpt>
      <trkpt lat="43.77616" lon="6.81447">
        <ele>1186.2</ele>
        <time>2012-06-01T13:43:10Z</time>
      </trkpt>
      <trkpt lat="43.77628" lon="6.81462">
        <ele>1185</ele>
        <time>2012-06-01T13:43:31Z</time>
      </trkpt>
      <trkpt lat="43.77635" lon="6.81468">
        <ele>1184.6</ele>
        <time>2012-06-01T13:43:40Z</time>
      </trkpt>
      <trkpt lat="43.77643" lon="6.81474">
        <ele>1184.1</ele>
        <time>2012-06-01T13:43:51Z</time>
      </trkpt>
      <trkpt lat="43.77649" lon="6.81484">
        <ele>1183.6</ele>
        <time>2012-06-01T13:44:01Z</time>
      </trkpt>
      <trkpt lat="43.77655" lon="6.81491">
        <ele>1182.7</ele>
        <time>2012-06-01T13:44:11Z</time>
      </trkpt>
      <trkpt lat="43.77656" lon="6.81492">
        <ele>1182.7</ele>
        <time>2012-06-01T13:44:12Z</time>
      </trkpt>
      <trkpt lat="43.77666" lon="6.8151">
        <ele>1181.1</ele>
        <time>2012-06-01T13:44:33Z</time>
      </trkpt>
      <trkpt lat="43.7767" lon="6.8152">
        <ele>1181.9</ele>
        <time>2012-06-01T13:44:43Z</time>
      </trkpt>
      <trkpt lat="43.77674" lon="6.8153">
        <ele>1182.1</ele>
        <time>2012-06-01T13:44:51Z</time>
      </trkpt>
      <trkpt lat="43.77677" lon="6.81541">
        <ele>1180.4</ele>
        <time>2012-06-01T13:45:01Z</time>
      </trkpt>
      <trkpt lat="43.77678" lon="6.81553">
        <ele>1179</ele>
        <time>2012-06-01T13:45:13Z</time>
      </trkpt>
      <trkpt lat="43.77678" lon="6.81555">
        <ele>1179.4</ele>
        <time>2012-06-01T13:45:14Z</time>
      </trkpt>
      <trkpt lat="43.77677" lon="6.81578">
        <ele>1180</ele>
        <time>2012-06-01T13:45:34Z</time>
      </trkpt>
      <trkpt lat="43.77675" lon="6.81589">
        <ele>1179.9</ele>
        <time>2012-06-01T13:45:46Z</time>
      </trkpt>
      <trkpt lat="43.7767" lon="6.81598">
        <ele>1178.7</ele>
        <time>2012-06-01T13:45:55Z</time>
      </trkpt>
      <trkpt lat="43.77666" lon="6.81609">
        <ele>1178.7</ele>
        <time>2012-06-01T13:46:06Z</time>
      </trkpt>
      <trkpt lat="43.77661" lon="6.81619">
        <ele>1178.7</ele>
        <time>2012-06-01T13:46:16Z</time>
      </trkpt>
      <trkpt lat="43.7766" lon="6.8162">
        <ele>1179</ele>
        <time>2012-06-01T13:46:17Z</time>
      </trkpt>
      <trkpt lat="43.77651" lon="6.81638">
        <ele>1179.4</ele>
        <time>2012-06-01T13:46:35Z</time>
      </trkpt>
      <trkpt lat="43.77646" lon="6.81648">
        <ele>1178.8</ele>
        <time>2012-06-01T13:46:43Z</time>
      </trkpt>
      <trkpt lat="43.77644" lon="6.81659">
        <ele>1179.2</ele>
        <time>2012-06-01T13:46:52Z</time>
      </trkpt>
      <trkpt lat="43.77647" lon="6.81669">
        <ele>1179.5</ele>
        <time>2012-06-01T13:47:00Z</time>
      </trkpt>
      <trkpt lat="43.77653" lon="6.81679">
        <ele>1178.5</ele>
        <time>2012-06-01T13:47:08Z</time>
      </trkpt>
      <trkpt lat="43.77658" lon="6.81687">
        <ele>1178.7</ele>
        <time>2012-06-01T13:47:15Z</time>
      </trkpt>
      <trkpt lat="43.77664" lon="6.81696">
        <ele>1176.8</ele>
        <time>2012-06-01T13:47:22Z</time>
      </trkpt>
      <trkpt lat="43.77664" lon="6.81697">
        <ele>1176.5</ele>
        <time>2012-06-01T13:47:23Z</time>
      </trkpt>
      <trkpt lat="43.77678" lon="6.81709">
        <ele>1177</ele>
        <time>2012-06-01T13:47:36Z</time>
      </trkpt>
      <trkpt lat="43.77685" lon="6.81716">
        <ele>1176.4</ele>
        <time>2012-06-01T13:47:44Z</time>
      </trkpt>
      <trkpt lat="43.77693" lon="6.8172">
        <ele>1175.6</ele>
        <time>2012-06-01T13:47:51Z</time>
      </trkpt>
      <trkpt lat="43.77701" lon="6.81722">
        <ele>1177.2</ele>
        <time>2012-06-01T13:47:58Z</time>
      </trkpt>
      <trkpt lat="43.77709" lon="6.81724">
        <ele>1175.3</ele>
        <time>2012-06-01T13:48:06Z</time>
      </trkpt>
      <trkpt lat="43.77718" lon="6.81724">
        <ele>1173.3</ele>
        <time>2012-06-01T13:48:14Z</time>
      </trkpt>
      <trkpt lat="43.77726" lon="6.81722">
        <ele>1174.6</ele>
        <time>2012-06-01T13:48:21Z</time>
      </trkpt>
      <trkpt lat="43.77734" lon="6.81721">
        <ele>1174.3</ele>
        <time>2012-06-01T13:48:31Z</time>
      </trkpt>
      <trkpt lat="43.77735" lon="6.8172">
        <ele>1174.4</ele>
        <time>2012-06-01T13:48:32Z</time>
      </trkpt>
    </trkseg>
  </trk>
</gpx>